Observation data for Crowell on 08/14/2019      Previous  Date  Next       Current Mesonet Observations  Soil Data  Daily Summary Page  Observations in Plain Language
KCR1 140500Z 04007KT 29/21 A3004 RMK A01 T02850205  RH  062%=      5-min Rain = 0
KCR1 140501Z 04007KT 28/21 A3004 RMK A01 T02840205  RH  062%=      5-min Rain = 0
KCR1 140502Z 04007KT 28/21 A3004 RMK A01 T02840205  RH  062%=      5-min Rain = 0
KCR1 140503Z 04007KT 28/21 A3004 RMK A01 T02840205  RH  062%=      5-min Rain = 0
KCR1 140504Z 05008KT 28/21 A3004 RMK A01 T02830205  RH  062%=      5-min Rain = 0
KCR1 140505Z 04007KT 28/21 A3004 RMK A01 T02830205  RH  062%=      5-min Rain = 0
KCR1 140506Z 05008KT 28/21 A3004 RMK A01 T02830205  RH  062%=      5-min Rain = 0
KCR1 140507Z 05008KT 28/20 A3004 RMK A01 T02830204  RH  062%=      5-min Rain = 0
KCR1 140508Z 05007KT 28/20 A3004 RMK A01 T02840204  RH  062%=      5-min Rain = 0
KCR1 140509Z 05008KT 28/20 A3004 RMK A01 T02830203  RH  062%=      5-min Rain = 0
KCR1 140510Z 05008KT 28/20 A3004 RMK A01 T02830202  RH  062%=      5-min Rain = 0
KCR1 140526Z 05010KT 29/20 A3005 RMK A01 T02860200  RH  060%=      5-min Rain = 0
KCR1 140527Z 05011KT 29/20 A3005 RMK A01 T02860200  RH  060%=      5-min Rain = 0
KCR1 140528Z 04011KT 29/20 A3005 RMK A01 T02860200  RH  060%=      5-min Rain = 0
KCR1 140529Z 05012KT 29/20 A3005 RMK A01 T02850200  RH  060%=      5-min Rain = 0
KCR1 140530Z 05010KT 29/20 A3005 RMK A01 T02860200  RH  060%=      5-min Rain = 0
KCR1 140531Z 05011KT 29/20 A3005 RMK A01 T02850200  RH  060%=      5-min Rain = 0
KCR1 140532Z 05012KT 29/20 A3005 RMK A01 T02850199  RH  060%=      5-min Rain = 0
KCR1 140533Z 05011KT 29/20 A3005 RMK A01 T02850199  RH  060%=      5-min Rain = 0
KCR1 140534Z 05012KT 29/20 A3005 RMK A01 T02850199  RH  060%=      5-min Rain = 0
KCR1 140535Z 05011KT 29/20 A3005 RMK A01 T02850199  RH  060%=      5-min Rain = 0
KCR1 140536Z 05011KT 29/20 A3005 RMK A01 T02850199  RH  060%=      5-min Rain = 0
KCR1 140537Z 05011KT 29/20 A3005 RMK A01 T02850199  RH  060%=      5-min Rain = 0
KCR1 140538Z 06011KT 29/20 A3005 RMK A01 T02850199  RH  060%=      5-min Rain = 0
KCR1 140539Z 05012KT 29/20 A3005 RMK A01 T02850199  RH  060%=      5-min Rain = 0
KCR1 140540Z 05010KT 28/20 A3005 RMK A01 T02840199  RH  060%=      5-min Rain = 0
KCR1 140541Z 05010KT 28/20 A3005 RMK A01 T02840200  RH  060%=      5-min Rain = 0
KCR1 140542Z 06009KT 28/20 A3005 RMK A01 T02840200  RH  060%=      5-min Rain = 0
KCR1 140543Z 05008KT 28/20 A3005 RMK A01 T02830199  RH  060%=      5-min Rain = 0
KCR1 140544Z 05008KT 28/20 A3005 RMK A01 T02830200  RH  060%=      5-min Rain = 0
KCR1 140545Z 06011KT 28/20 A3005 RMK A01 T02830200  RH  061%=      5-min Rain = 0
KCR1 140546Z 05009KT 28/20 A3005 RMK A01 T02830200  RH  061%=      5-min Rain = 0
KCR1 140547Z 05008KT 28/20 A3005 RMK A01 T02830200  RH  061%=      5-min Rain = 0
KCR1 140548Z 05010KT 28/20 A3005 RMK A01 T02830200  RH  061%=      5-min Rain = 0
KCR1 140549Z 06010KT 28/20 A3005 RMK A01 T02820200  RH  061%=      5-min Rain = 0
KCR1 140550Z 06010KT 28/20 A3005 RMK A01 T02820199  RH  061%=      5-min Rain = 0
KCR1 140551Z 06009KT 28/20 A3005 RMK A01 T02820199  RH  061%=      5-min Rain = 0
KCR1 140552Z 05008KT 28/20 A3005 RMK A01 T02820199  RH  061%=      5-min Rain = 0
KCR1 140553Z 05010KT 28/20 A3005 RMK A01 T02820199  RH  061%=      5-min Rain = 0
KCR1 140554Z 06009KT 28/20 A3005 RMK A01 T02820199  RH  061%=      5-min Rain = 0
KCR1 140555Z 06010KT 28/20 A3005 RMK A01 T02810199  RH  061%=      5-min Rain = 0
KCR1 140556Z 06009KT 28/20 A3005 RMK A01 T02810198  RH  061%=      5-min Rain = 0
KCR1 140557Z 06008KT 28/20 A3005 RMK A01 T02810198  RH  061%=      5-min Rain = 0
KCR1 140558Z 06009KT 28/20 A3005 RMK A01 T02810198  RH  061%=      5-min Rain = 0
KCR1 140559Z 06007KT 28/20 A3006 RMK A01 T02810198  RH  061%=      5-min Rain = 0
KCR1 140600Z 06009KT 28/20 A3006 RMK A01 T02810198  RH  061%=      5-min Rain = 0
KCR1 140601Z 06008KT 28/20 A3006 RMK A01 T02800197  RH  061%=      5-min Rain = 0
KCR1 140602Z 06009KT 28/20 A3006 RMK A01 T02800197  RH  061%=      5-min Rain = 0
KCR1 140603Z 05010KT 28/20 A3006 RMK A01 T02800197  RH  060%=      5-min Rain = 0
KCR1 140604Z 05009KT 28/20 A3006 RMK A01 T02800196  RH  060%=      5-min Rain = 0
KCR1 140605Z 06008KT 28/20 A3006 RMK A01 T02800196  RH  060%=      5-min Rain = 0
KCR1 140606Z 05007KT 28/20 A3006 RMK A01 T02800196  RH  060%=      5-min Rain = 0
KCR1 140607Z 05008KT 28/20 A3006 RMK A01 T02800196  RH  060%=      5-min Rain = 0
KCR1 140608Z 06009KT 28/20 A3005 RMK A01 T02800195  RH  060%=      5-min Rain = 0
KCR1 140609Z 06009KT 28/20 A3005 RMK A01 T02800195  RH  060%=      5-min Rain = 0
KCR1 140610Z 06008KT 28/20 A3005 RMK A01 T02800195  RH  060%=      5-min Rain = 0
KCR1 140611Z 06010KT 28/20 A3005 RMK A01 T02790195  RH  060%=      5-min Rain = 0
KCR1 140612Z 06009KT 28/19 A3005 RMK A01 T02790194  RH  060%=      5-min Rain = 0
KCR1 140613Z 06008KT 28/20 A3005 RMK A01 T02790195  RH  060%=      5-min Rain = 0
KCR1 140614Z 05007KT 28/20 A3005 RMK A01 T02780195  RH  060%=      5-min Rain = 0
KCR1 140615Z 05008KT 28/20 A3005 RMK A01 T02780195  RH  060%=      5-min Rain = 0
KCR1 140616Z 05008KT 28/19 A3005 RMK A01 T02780194  RH  060%=      5-min Rain = 0
KCR1 140617Z 05008KT 28/19 A3005 RMK A01 T02770194  RH  061%=      5-min Rain = 0
KCR1 140618Z 05008KT 28/19 A3005 RMK A01 T02770194  RH  061%=      5-min Rain = 0
KCR1 140619Z 05007KT 28/19 A3005 RMK A01 T02770194  RH  061%=      5-min Rain = 0
KCR1 140620Z 05007KT 28/19 A3005 RMK A01 T02770194  RH  061%=      5-min Rain = 0
KCR1 140621Z 05008KT 28/19 A3005 RMK A01 T02760194  RH  061%=      5-min Rain = 0
KCR1 140622Z 05007KT 28/19 A3005 RMK A01 T02760194  RH  061%=      5-min Rain = 0
KCR1 140623Z 05007KT 28/19 A3005 RMK A01 T02760194  RH  061%=      5-min Rain = 0
KCR1 140624Z 05007KT 28/20 A3005 RMK A01 T02760195  RH  061%=      5-min Rain = 0
KCR1 140625Z 05008KT 28/19 A3005 RMK A01 T02760194  RH  061%=      5-min Rain = 0
KCR1 140626Z 05008KT 28/19 A3005 RMK A01 T02750194  RH  061%=      5-min Rain = 0
KCR1 140627Z 05007KT 28/20 A3005 RMK A01 T02760195  RH  061%=      5-min Rain = 0
KCR1 140628Z 04008KT 28/19 A3005 RMK A01 T02750194  RH  061%=      5-min Rain = 0
KCR1 140629Z 04008KT 28/20 A3005 RMK A01 T02750195  RH  061%=      5-min Rain = 0
KCR1 140630Z 04008KT 28/19 A3005 RMK A01 T02750194  RH  061%=      5-min Rain = 0
KCR1 140631Z 04009KT 28/19 A3005 RMK A01 T02750194  RH  062%=      5-min Rain = 0
KCR1 140632Z 04009KT 28/20 A3006 RMK A01 T02750195  RH  062%=      5-min Rain = 0
KCR1 140633Z 04009KT 28/20 A3006 RMK A01 T02750195  RH  062%=      5-min Rain = 0
KCR1 140634Z 04008KT 28/20 A3006 RMK A01 T02750195  RH  062%=      5-min Rain = 0
KCR1 140635Z 04008KT 28/20 A3006 RMK A01 T02750195  RH  062%=      5-min Rain = 0
KCR1 140636Z 04008KT 28/20 A3006 RMK A01 T02750195  RH  062%=      5-min Rain = 0
KCR1 140637Z 04009KT 28/20 A3006 RMK A01 T02750195  RH  062%=      5-min Rain = 0
KCR1 140638Z 03008KT 28/20 A3006 RMK A01 T02750195  RH  062%=      5-min Rain = 0
KCR1 140639Z 03008KT 28/20 A3006 RMK A01 T02750195  RH  062%=      5-min Rain = 0
KCR1 140640Z 03008KT 28/20 A3006 RMK A01 T02750195  RH  062%=      5-min Rain = 0
KCR1 140641Z 03008KT 28/20 A3006 RMK A01 T02750195  RH  062%=      5-min Rain = 0
KCR1 140642Z 03008KT 27/19 A3006 RMK A01 T02740194  RH  061%=      5-min Rain = 0
KCR1 140643Z 03007KT 28/20 A3006 RMK A01 T02750195  RH  061%=      5-min Rain = 0
KCR1 140644Z 04008KT 28/19 A3006 RMK A01 T02750194  RH  061%=      5-min Rain = 0
KCR1 140645Z 04008KT 28/19 A3006 RMK A01 T02750194  RH  061%=      5-min Rain = 0
KCR1 140646Z 03008KT 28/19 A3006 RMK A01 T02750194  RH  061%=      5-min Rain = 0
KCR1 140647Z 04009KT 28/19 A3006 RMK A01 T02750194  RH  061%=      5-min Rain = 0
KCR1 140648Z 04010KT 28/19 A3006 RMK A01 T02750194  RH  061%=      5-min Rain = 0
KCR1 140649Z 03010KT 28/19 A3006 RMK A01 T02750194  RH  061%=      5-min Rain = 0
KCR1 140650Z 03011KT 28/19 A3006 RMK A01 T02750194  RH  061%=      5-min Rain = 0
KCR1 140651Z 02010KT 28/19 A3006 RMK A01 T02750194  RH  061%=      5-min Rain = 0
KCR1 140652Z 03011KT 28/19 A3006 RMK A01 T02750194  RH  061%=      5-min Rain = 0
KCR1 140653Z 03011KT 28/19 A3006 RMK A01 T02750194  RH  061%=      5-min Rain = 0
KCR1 140654Z 03011KT 28/19 A3006 RMK A01 T02750194  RH  061%=      5-min Rain = 0
KCR1 140655Z 03010KT 28/19 A3006 RMK A01 T02750194  RH  061%=      5-min Rain = 0
KCR1 140656Z 03011KT 28/19 A3006 RMK A01 T02750194  RH  061%=      5-min Rain = 0
KCR1 140657Z 03011KT 28/19 A3006 RMK A01 T02750193  RH  061%=      5-min Rain = 0
KCR1 140658Z 03011KT 28/19 A3006 RMK A01 T02750193  RH  061%=      5-min Rain = 0
KCR1 140659Z 03010KT 28/19 A3006 RMK A01 T02750193  RH  061%=      5-min Rain = 0
KCR1 140700Z 03010KT 28/19 A3006 RMK A01 T02750193  RH  061%=      5-min Rain = 0
KCR1 140701Z 03008KT 28/19 A3006 RMK A01 T02750192  RH  061%=      5-min Rain = 0
KCR1 140702Z 03010KT 28/19 A3006 RMK A01 T02750193  RH  061%=      5-min Rain = 0
KCR1 140703Z 03011KT 28/19 A3006 RMK A01 T02750192  RH  060%=      5-min Rain = 0
KCR1 140704Z 03009KT 28/19 A3006 RMK A01 T02760192  RH  060%=      5-min Rain = 0
KCR1 140705Z 03011KT 28/19 A3006 RMK A01 T02760192  RH  060%=      5-min Rain = 0
KCR1 140706Z 03010KT 28/19 A3006 RMK A01 T02760192  RH  060%=      5-min Rain = 0
KCR1 140707Z 03010KT 28/19 A3006 RMK A01 T02760192  RH  060%=      5-min Rain = 0
KCR1 140708Z 03011KT 28/19 A3006 RMK A01 T02770192  RH  060%=      5-min Rain = 0
KCR1 140709Z 03011KT 28/19 A3006 RMK A01 T02770192  RH  060%=      5-min Rain = 0
KCR1 140710Z 03010KT 28/19 A3006 RMK A01 T02760192  RH  060%=      5-min Rain = 0
KCR1 140711Z 02010KT 28/19 A3006 RMK A01 T02760192  RH  060%=      5-min Rain = 0
KCR1 140712Z 02009KT 28/19 A3006 RMK A01 T02760192  RH  060%=      5-min Rain = 0
KCR1 140713Z 01008KT 28/19 A3006 RMK A01 T02760193  RH  060%=      5-min Rain = 0
KCR1 140714Z 01007KT 28/19 A3006 RMK A01 T02770194  RH  060%=      5-min Rain = 0
KCR1 140715Z 36008KT 28/19 A3006 RMK A01 T02760194  RH  061%=      5-min Rain = 0
KCR1 140716Z 36009KT 28/20 A3006 RMK A01 T02760195  RH  061%=      5-min Rain = 0
KCR1 140717Z 36008KT 28/20 A3006 RMK A01 T02760195  RH  061%=      5-min Rain = 0
KCR1 140718Z 00007KT 28/20 A3006 RMK A01 T02750195  RH  062%=      5-min Rain = 0
KCR1 140719Z 01007KT 28/20 A3006 RMK A01 T02750196  RH  062%=      5-min Rain = 0
KCR1 140720Z 01008KT 28/20 A3005 RMK A01 T02750196  RH  062%=      5-min Rain = 0
KCR1 140721Z 01007KT 27/20 A3005 RMK A01 T02740197  RH  063%=      5-min Rain = 0
KCR1 140722Z 01006KT 27/20 A3005 RMK A01 T02740198  RH  063%=      5-min Rain = 0
KCR1 140723Z 01006KT 27/20 A3005 RMK A01 T02730199  RH  064%=      5-min Rain = 0
KCR1 140724Z 01006KT 27/20 A3005 RMK A01 T02720199  RH  064%=      5-min Rain = 0
KCR1 140725Z 02006KT 27/20 A3005 RMK A01 T02720203  RH  066%=      5-min Rain = 0
KCR1 140726Z 02006KT 27/21 A3005 RMK A01 T02700208  RH  069%=      5-min Rain = 0
KCR1 140727Z 02007KT 27/21 A3005 RMK A01 T02670207  RH  069%=      5-min Rain = 0
KCR1 140728Z 02008KT 27/21 A3005 RMK A01 T02660206  RH  070%=      5-min Rain = 0
KCR1 140729Z 03007KT 27/21 A3005 RMK A01 T02650206  RH  070%=      5-min Rain = 0
KCR1 140730Z 03009KT 27/21 A3006 RMK A01 T02650206  RH  070%=      5-min Rain = 0
KCR1 140731Z 02008KT 26/21 A3006 RMK A01 T02640205  RH  070%=      5-min Rain = 0
KCR1 140732Z 02008KT 27/21 A3005 RMK A01 T02650205  RH  070%=      5-min Rain = 0
KCR1 140733Z 02009KT 27/21 A3005 RMK A01 T02650205  RH  070%=      5-min Rain = 0
KCR1 140734Z 01009KT 26/20 A3005 RMK A01 T02640204  RH  069%=      5-min Rain = 0
KCR1 140735Z 02009KT 26/20 A3005 RMK A01 T02640204  RH  070%=      5-min Rain = 0
KCR1 140736Z 01009KT 26/21 A3005 RMK A01 T02640205  RH  070%=      5-min Rain = 0
KCR1 140737Z 02009KT 26/20 A3005 RMK A01 T02640204  RH  070%=      5-min Rain = 0
KCR1 140738Z 02009KT 26/20 A3005 RMK A01 T02640204  RH  069%=      5-min Rain = 0
KCR1 140739Z 03009KT 26/20 A3005 RMK A01 T02640203  RH  069%=      5-min Rain = 0
KCR1 140740Z 04009KT 26/20 A3005 RMK A01 T02640202  RH  069%=      5-min Rain = 0
KCR1 140741Z 03009KT 26/20 A3005 RMK A01 T02640202  RH  069%=      5-min Rain = 0
KCR1 140742Z 03010KT 27/20 A3005 RMK A01 T02650202  RH  069%=      5-min Rain = 0
KCR1 140743Z 04011KT 27/20 A3005 RMK A01 T02650200  RH  068%=      5-min Rain = 0
KCR1 140744Z 04010KT 27/20 A3005 RMK A01 T02660200  RH  067%=      5-min Rain = 0
KCR1 140745Z 03009KT 27/20 A3005 RMK A01 T02660201  RH  067%=      5-min Rain = 0
KCR1 140746Z 03009KT 27/20 A3005 RMK A01 T02660201  RH  067%=      5-min Rain = 0
KCR1 140747Z 03009KT 27/20 A3005 RMK A01 T02660200  RH  067%=      5-min Rain = 0
KCR1 140748Z 03009KT 27/20 A3005 RMK A01 T02670200  RH  067%=      5-min Rain = 0
KCR1 140749Z 04008KT 27/20 A3005 RMK A01 T02670201  RH  067%=      5-min Rain = 0
KCR1 140750Z 05007KT 27/20 A3005 RMK A01 T02670201  RH  067%=      5-min Rain = 0
KCR1 140751Z 05008KT 27/20 A3005 RMK A01 T02670201  RH  067%=      5-min Rain = 0
KCR1 140752Z 05009KT 27/20 A3005 RMK A01 T02670201  RH  067%=      5-min Rain = 0
KCR1 140753Z 05010KT 27/20 A3005 RMK A01 T02670202  RH  067%=      5-min Rain = 0
KCR1 140754Z 05009KT 27/20 A3005 RMK A01 T02670201  RH  067%=      5-min Rain = 0
KCR1 140755Z 05009KT 27/20 A3005 RMK A01 T02670201  RH  067%=      5-min Rain = 0
KCR1 140756Z 05010KT 27/20 A3005 RMK A01 T02670201  RH  067%=      5-min Rain = 0
KCR1 140757Z 05009KT 27/20 A3005 RMK A01 T02670201  RH  067%=      5-min Rain = 0
KCR1 140758Z 05009KT 27/20 A3005 RMK A01 T02670202  RH  067%=      5-min Rain = 0
KCR1 140759Z 06010KT 27/20 A3005 RMK A01 T02670202  RH  067%=      5-min Rain = 0
KCR1 140800Z 06011KT 27/20 A3005 RMK A01 T02670204  RH  068%=      5-min Rain = 0
KCR1 140801Z 06009KT 27/20 A3005 RMK A01 T02660204  RH  068%=      5-min Rain = 0
KCR1 140802Z 06010KT 27/20 A3006 RMK A01 T02660204  RH  069%=      5-min Rain = 0
KCR1 140803Z 05009KT 27/21 A3006 RMK A01 T02660205  RH  069%=      5-min Rain = 0
KCR1 140804Z 05009KT 27/20 A3006 RMK A01 T02650204  RH  069%=      5-min Rain = 0
KCR1 140805Z 05010KT 27/21 A3006 RMK A01 T02650205  RH  070%=      5-min Rain = 0
KCR1 140806Z 05011KT 26/21 A3006 RMK A01 T02640206  RH  070%=      5-min Rain = 0
KCR1 140807Z 06014KT 26/21 A3006 RMK A01 T02640206  RH  071%=      5-min Rain = 0
KCR1 140808Z 06015KT 26/21 A3005 RMK A01 T02620206  RH  071%=      5-min Rain = 0
KCR1 140809Z 06013KT 26/21 A3005 RMK A01 T02610205  RH  071%=      5-min Rain = 0
KCR1 140810Z 07010KT 26/21 A3005 RMK A01 T02600206  RH  072%=      5-min Rain = 0
KCR1 140811Z 06011KT 26/21 A3005 RMK A01 T02600206  RH  072%=      5-min Rain = 0
KCR1 140812Z 07010KT 26/21 A3005 RMK A01 T02600206  RH  072%=      5-min Rain = 0
KCR1 140813Z 06012KT 26/21 A3005 RMK A01 T02600205  RH  072%=      5-min Rain = 0
KCR1 140814Z 06011KT 26/21 A3006 RMK A01 T02600205  RH  072%=      5-min Rain = 0
KCR1 140815Z 06010KT 26/20 A3006 RMK A01 T02600204  RH  071%=      5-min Rain = 0
KCR1 140816Z 05010KT 26/20 A3006 RMK A01 T02600204  RH  071%=      5-min Rain = 0
KCR1 140817Z 06011KT 26/20 A3006 RMK A01 T02600202  RH  071%=      5-min Rain = 0
KCR1 140818Z 06012KT 26/20 A3006 RMK A01 T02600202  RH  070%=      5-min Rain = 0
KCR1 140819Z 06012KT 26/20 A3006 RMK A01 T02610202  RH  070%=      5-min Rain = 0
KCR1 140820Z 06011KT 26/20 A3006 RMK A01 T02610201  RH  069%=      5-min Rain = 0
KCR1 140821Z 06010KT 26/20 A3006 RMK A01 T02620201  RH  069%=      5-min Rain = 0
KCR1 140822Z 05013KT 26/20 A3006 RMK A01 T02620200  RH  069%=      5-min Rain = 0
KCR1 140823Z 05010KT 26/20 A3006 RMK A01 T02620199  RH  068%=      5-min Rain = 0
KCR1 140824Z 06010KT 26/20 A3006 RMK A01 T02620199  RH  068%=      5-min Rain = 0
KCR1 140825Z 06012KT 26/20 A3006 RMK A01 T02620199  RH  068%=      5-min Rain = 0
KCR1 140826Z 06013KT 26/20 A3006 RMK A01 T02630198  RH  068%=      5-min Rain = 0
KCR1 140827Z 05014KT 26/20 A3006 RMK A01 T02630197  RH  067%=      5-min Rain = 0
KCR1 140828Z 06014KT 26/20 A3006 RMK A01 T02630197  RH  067%=      5-min Rain = 0
KCR1 140829Z 06013KT 26/20 A3006 RMK A01 T02630197  RH  067%=      5-min Rain = 0
KCR1 140830Z 06014KT 26/20 A3006 RMK A01 T02630198  RH  067%=      5-min Rain = 0
KCR1 140831Z 07011KT 26/20 A3006 RMK A01 T02620197  RH  067%=      5-min Rain = 0
KCR1 140832Z 06014KT 26/20 A3006 RMK A01 T02620198  RH  068%=      5-min Rain = 0
KCR1 140833Z 06013KT 26/20 A3006 RMK A01 T02620198  RH  068%=      5-min Rain = 0
KCR1 140834Z 06014KT 26/20 A3006 RMK A01 T02610198  RH  068%=      5-min Rain = 0
KCR1 140835Z 06013KT 26/20 A3006 RMK A01 T02610198  RH  068%=      5-min Rain = 0
KCR1 140836Z 05014KT 26/20 A3006 RMK A01 T02600198  RH  069%=      5-min Rain = 0
KCR1 140837Z 05014KT 26/20 A3006 RMK A01 T02600198  RH  069%=      5-min Rain = 0
KCR1 140838Z 06015KT 26/20 A3006 RMK A01 T02600198  RH  069%=      5-min Rain = 0
KCR1 140839Z 05012KT 26/20 A3006 RMK A01 T02600198  RH  069%=      5-min Rain = 0
KCR1 140840Z 05010KT 26/20 A3006 RMK A01 T02600198  RH  069%=      5-min Rain = 0
KCR1 140841Z 05012KT 26/20 A3006 RMK A01 T02590198  RH  069%=      5-min Rain = 0
KCR1 140842Z 05013KT 26/20 A3006 RMK A01 T02600199  RH  069%=      5-min Rain = 0
KCR1 140843Z 06013KT 26/20 A3006 RMK A01 T02590199  RH  069%=      5-min Rain = 0
KCR1 140844Z 05011KT 26/20 A3006 RMK A01 T02590199  RH  069%=      5-min Rain = 0
KCR1 140845Z 05013KT 26/20 A3006 RMK A01 T02580198  RH  069%=      5-min Rain = 0
KCR1 140846Z 05013KT 26/20 A3006 RMK A01 T02580198  RH  069%=      5-min Rain = 0
KCR1 140847Z 05014KT 26/20 A3006 RMK A01 T02580198  RH  069%=      5-min Rain = 0
KCR1 140848Z 05014KT 26/20 A3006 RMK A01 T02580198  RH  069%=      5-min Rain = 0
KCR1 140849Z 05010KT 26/20 A3006 RMK A01 T02580198  RH  070%=      5-min Rain = 0
KCR1 140850Z 05010KT 26/20 A3005 RMK A01 T02570198  RH  070%=      5-min Rain = 0
KCR1 140851Z 05012KT 26/20 A3005 RMK A01 T02570198  RH  070%=      5-min Rain = 0
KCR1 140852Z 05013KT 26/20 A3005 RMK A01 T02560198  RH  070%=      5-min Rain = 0
KCR1 140853Z 05011KT 26/20 A3005 RMK A01 T02550198  RH  071%=      5-min Rain = 0
KCR1 140854Z 04011KT 26/20 A3005 RMK A01 T02550199  RH  071%=      5-min Rain = 0
KCR1 140855Z 04012KT 26/20 A3005 RMK A01 T02550199  RH  071%=      5-min Rain = 0
KCR1 140856Z 04012KT 25/20 A3005 RMK A01 T02540199  RH  071%=      5-min Rain = 0
KCR1 140857Z 04013KT 25/20 A3005 RMK A01 T02540199  RH  072%=      5-min Rain = 0
KCR1 140858Z 04011KT 25/20 A3005 RMK A01 T02530199  RH  072%=      5-min Rain = 0
KCR1 140859Z 05012KT 25/20 A3005 RMK A01 T02530199  RH  072%=      5-min Rain = 0
KCR1 140900Z 05012KT 25/20 A3005 RMK A01 T02520199  RH  072%=      5-min Rain = 0
KCR1 140901Z 05010KT 25/20 A3006 RMK A01 T02520199  RH  073%=      5-min Rain = 0
KCR1 140902Z 05011KT 25/20 A3006 RMK A01 T02520199  RH  073%=      5-min Rain = 0
KCR1 140903Z 05011KT 25/20 A3006 RMK A01 T02520200  RH  073%=      5-min Rain = 0
KCR1 140904Z 06010KT 25/20 A3006 RMK A01 T02510199  RH  073%=      5-min Rain = 0
KCR1 140905Z 07009KT 25/20 A3006 RMK A01 T02510199  RH  073%=      5-min Rain = 0
KCR1 140906Z 06010KT 25/20 A3006 RMK A01 T02510199  RH  073%=      5-min Rain = 0
KCR1 140907Z 07009KT 25/20 A3006 RMK A01 T02510200  RH  073%=      5-min Rain = 0
KCR1 140908Z 06010KT 25/20 A3006 RMK A01 T02500200  RH  073%=      5-min Rain = 0
KCR1 140909Z 06008KT 25/20 A3006 RMK A01 T02500200  RH  074%=      5-min Rain = 0
KCR1 140910Z 06009KT 25/20 A3006 RMK A01 T02500200  RH  074%=      5-min Rain = 0
KCR1 140911Z 05009KT 25/20 A3006 RMK A01 T02500200  RH  074%=      5-min Rain = 0
KCR1 140912Z 04009KT 25/20 A3006 RMK A01 T02490199  RH  074%=      5-min Rain = 0
KCR1 140913Z 04009KT 25/20 A3006 RMK A01 T02490199  RH  073%=      5-min Rain = 0
KCR1 140914Z 05009KT 25/20 A3006 RMK A01 T02490199  RH  073%=      5-min Rain = 0
KCR1 140915Z 05009KT 25/20 A3006 RMK A01 T02490199  RH  073%=      5-min Rain = 0
KCR1 140916Z 04009KT 25/20 A3006 RMK A01 T02500198  RH  073%=      5-min Rain = 0
KCR1 140917Z 05009KT 25/20 A3006 RMK A01 T02490198  RH  073%=      5-min Rain = 0
KCR1 140918Z 04009KT 25/20 A3006 RMK A01 T02500198  RH  073%=      5-min Rain = 0
KCR1 140919Z 04009KT 25/20 A3006 RMK A01 T02500198  RH  073%=      5-min Rain = 0
KCR1 140920Z 04009KT 25/20 A3006 RMK A01 T02490199  RH  073%=      5-min Rain = 0
KCR1 140921Z 04009KT 25/20 A3006 RMK A01 T02490199  RH  074%=      5-min Rain = 0
KCR1 140922Z 04010KT 25/20 A3006 RMK A01 T02490200  RH  074%=      5-min Rain = 0
KCR1 140923Z 04009KT 25/20 A3006 RMK A01 T02480199  RH  074%=      5-min Rain = 0
KCR1 140924Z 04008KT 25/20 A3006 RMK A01 T02480200  RH  075%=      5-min Rain = 0
KCR1 140925Z 04008KT 25/20 A3006 RMK A01 T02470200  RH  075%=      5-min Rain = 0
KCR1 140926Z 04008KT 25/20 A3006 RMK A01 T02470200  RH  075%=      5-min Rain = 0
KCR1 140927Z 03008KT 25/20 A3006 RMK A01 T02470200  RH  075%=      5-min Rain = 0
KCR1 140928Z 03008KT 25/20 A3006 RMK A01 T02470200  RH  075%=      5-min Rain = 0
KCR1 140929Z 03008KT 25/20 A3006 RMK A01 T02470200  RH  075%=      5-min Rain = 0
KCR1 140930Z 02008KT 25/20 A3006 RMK A01 T02470200  RH  075%=      5-min Rain = 0
KCR1 140931Z 02008KT 25/20 A3006 RMK A01 T02460200  RH  075%=      5-min Rain = 0
KCR1 140932Z 03009KT 25/20 A3006 RMK A01 T02460200  RH  075%=      5-min Rain = 0
KCR1 140933Z 03009KT 25/20 A3006 RMK A01 T02460200  RH  075%=      5-min Rain = 0
KCR1 140934Z 03010KT 25/20 A3006 RMK A01 T02460199  RH  075%=      5-min Rain = 0
KCR1 140935Z 03010KT 25/20 A3006 RMK A01 T02460199  RH  075%=      5-min Rain = 0
KCR1 140936Z 04011KT 25/20 A3006 RMK A01 T02460199  RH  075%=      5-min Rain = 0
KCR1 140937Z 04012KT 25/20 A3007 RMK A01 T02460199  RH  075%=      5-min Rain = 0
KCR1 140938Z 04011KT 25/20 A3007 RMK A01 T02450199  RH  075%=      5-min Rain = 0
KCR1 140939Z 03011KT 25/20 A3007 RMK A01 T02450199  RH  075%=      5-min Rain = 0
KCR1 140940Z 03009KT 25/20 A3007 RMK A01 T02450198  RH  075%=      5-min Rain = 0
KCR1 140941Z 03013KT 25/20 A3007 RMK A01 T02450198  RH  075%=      5-min Rain = 0
KCR1 140942Z 03012KT 24/20 A3007 RMK A01 T02440198  RH  075%=      5-min Rain = 0
KCR1 140943Z 02010KT 24/20 A3007 RMK A01 T02440198  RH  075%=      5-min Rain = 0
KCR1 140944Z 03011KT 24/20 A3007 RMK A01 T02440198  RH  075%=      5-min Rain = 0
KCR1 140945Z 02011KT 24/20 A3007 RMK A01 T02430197  RH  075%=      5-min Rain = 0
KCR1 140946Z 03013KT 24/20 A3007 RMK A01 T02430197  RH  076%=      5-min Rain = 0
KCR1 140947Z 02012KT 24/20 A3007 RMK A01 T02420197  RH  076%=      5-min Rain = 0
KCR1 140948Z 02012KT 24/20 A3007 RMK A01 T02420196  RH  076%=      5-min Rain = 0
KCR1 140949Z 02014KT 24/20 A3007 RMK A01 T02410196  RH  076%=      5-min Rain = 0
KCR1 140950Z 02014KT 24/20 A3007 RMK A01 T02410195  RH  076%=      5-min Rain = 0
KCR1 140951Z 02014KT 24/19 A3007 RMK A01 T02400194  RH  075%=      5-min Rain = 0
KCR1 140952Z 02014KT 24/19 A3007 RMK A01 T02400194  RH  076%=      5-min Rain = 0
KCR1 140953Z 02014KT 24/19 A3007 RMK A01 T02400194  RH  076%=      5-min Rain = 0
KCR1 140954Z 02012KT 24/19 A3007 RMK A01 T02390193  RH  076%=      5-min Rain = 0
KCR1 140955Z 02014KT 24/19 A3008 RMK A01 T02390193  RH  076%=      5-min Rain = 0
KCR1 140956Z 03013KT 24/19 A3008 RMK A01 T02380192  RH  075%=      5-min Rain = 0
KCR1 140957Z 03012KT 24/19 A3008 RMK A01 T02380193  RH  076%=      5-min Rain = 0
KCR1 140958Z 03011KT 24/19 A3008 RMK A01 T02380192  RH  076%=      5-min Rain = 0
KCR1 140959Z 03013KT 24/19 A3008 RMK A01 T02380192  RH  076%=      5-min Rain = 0
KCR1 141000Z 03011KT 24/19 A3008 RMK A01 T02370192  RH  076%=      5-min Rain = 0
KCR1 141001Z 03012KT 24/19 A3008 RMK A01 T02370192  RH  076%=      5-min Rain = 0
KCR1 141002Z 02012KT 24/19 A3008 RMK A01 T02370192  RH  076%=      5-min Rain = 0
KCR1 141003Z 03012KT 24/19 A3008 RMK A01 T02370192  RH  076%=      5-min Rain = 0
KCR1 141004Z 03013KT 24/19 A3008 RMK A01 T02370192  RH  076%=      5-min Rain = 0
KCR1 141005Z 03012KT 24/19 A3008 RMK A01 T02370192  RH  076%=      5-min Rain = 0
KCR1 141006Z 03013KT 24/19 A3008 RMK A01 T02360192  RH  076%=      5-min Rain = 0
KCR1 141007Z 03011KT 24/19 A3008 RMK A01 T02360192  RH  076%=      5-min Rain = 0
KCR1 141008Z 03011KT 24/19 A3008 RMK A01 T02360192  RH  076%=      5-min Rain = 0
KCR1 141009Z 02011KT 24/19 A3008 RMK A01 T02360191  RH  076%=      5-min Rain = 0
KCR1 141010Z 03012KT 24/19 A3008 RMK A01 T02350191  RH  076%=      5-min Rain = 0
KCR1 141011Z 02011KT 24/19 A3008 RMK A01 T02350191  RH  076%=      5-min Rain = 0
KCR1 141012Z 02011KT 24/19 A3008 RMK A01 T02350191  RH  076%=      5-min Rain = 0
KCR1 141013Z 02012KT 24/19 A3008 RMK A01 T02350191  RH  076%=      5-min Rain = 0
KCR1 141014Z 03011KT 24/19 A3008 RMK A01 T02350191  RH  076%=      5-min Rain = 0
KCR1 141015Z 03011KT 24/19 A3008 RMK A01 T02350191  RH  076%=      5-min Rain = 0
KCR1 141016Z 03010KT 23/19 A3008 RMK A01 T02340191  RH  076%=      5-min Rain = 0
KCR1 141017Z 02011KT 23/19 A3008 RMK A01 T02340191  RH  076%=      5-min Rain = 0
KCR1 141018Z 03011KT 23/19 A3008 RMK A01 T02340190  RH  076%=      5-min Rain = 0
KCR1 141019Z 03011KT 23/19 A3008 RMK A01 T02340190  RH  076%=      5-min Rain = 0
KCR1 141020Z 03011KT 23/19 A3008 RMK A01 T02340190  RH  076%=      5-min Rain = 0
KCR1 141021Z 03010KT 23/19 A3008 RMK A01 T02340190  RH  076%=      5-min Rain = 0
KCR1 141022Z 02010KT 23/19 A3008 RMK A01 T02340190  RH  076%=      5-min Rain = 0
KCR1 141023Z 03011KT 23/19 A3008 RMK A01 T02340190  RH  076%=      5-min Rain = 0
KCR1 141024Z 03011KT 23/19 A3008 RMK A01 T02330189  RH  076%=      5-min Rain = 0
KCR1 141025Z 03011KT 23/19 A3008 RMK A01 T02330190  RH  077%=      5-min Rain = 0
KCR1 141026Z 02011KT 23/19 A3008 RMK A01 T02330190  RH  076%=      5-min Rain = 0
KCR1 141027Z 03010KT 23/19 A3008 RMK A01 T02330190  RH  076%=      5-min Rain = 0
KCR1 141028Z 03010KT 23/19 A3008 RMK A01 T02330189  RH  076%=      5-min Rain = 0
KCR1 141029Z 03010KT 23/19 A3009 RMK A01 T02330189  RH  076%=      5-min Rain = 0
KCR1 141030Z 03009KT 23/19 A3009 RMK A01 T02330189  RH  076%=      5-min Rain = 0
KCR1 141031Z 03011KT 23/19 A3009 RMK A01 T02330189  RH  076%=      5-min Rain = 0
KCR1 141032Z 03011KT 23/19 A3009 RMK A01 T02330189  RH  076%=      5-min Rain = 0
KCR1 141033Z 03010KT 23/19 A3009 RMK A01 T02320188  RH  076%=      5-min Rain = 0
KCR1 141034Z 02009KT 23/19 A3009 RMK A01 T02330188  RH  076%=      5-min Rain = 0
KCR1 141035Z 02010KT 23/19 A3009 RMK A01 T02320188  RH  076%=      5-min Rain = 0
KCR1 141036Z 02009KT 23/19 A3009 RMK A01 T02320188  RH  076%=      5-min Rain = 0
KCR1 141037Z 02009KT 23/19 A3009 RMK A01 T02320188  RH  076%=      5-min Rain = 0
KCR1 141038Z 02010KT 23/19 A3009 RMK A01 T02320188  RH  076%=      5-min Rain = 0
KCR1 141039Z 02010KT 23/19 A3009 RMK A01 T02310188  RH  076%=      5-min Rain = 0
KCR1 141040Z 02009KT 23/19 A3009 RMK A01 T02310188  RH  076%=      5-min Rain = 0
KCR1 141041Z 01010KT 23/19 A3008 RMK A01 T02310187  RH  076%=      5-min Rain = 0
KCR1 141042Z 02010KT 23/19 A3008 RMK A01 T02310187  RH  076%=      5-min Rain = 0
KCR1 141043Z 02010KT 23/19 A3008 RMK A01 T02310187  RH  076%=      5-min Rain = 0
KCR1 141044Z 02010KT 23/19 A3008 RMK A01 T02300187  RH  076%=      5-min Rain = 0
KCR1 141045Z 02011KT 23/19 A3008 RMK A01 T02300187  RH  077%=      5-min Rain = 0
KCR1 141046Z 02010KT 23/19 A3008 RMK A01 T02300187  RH  077%=      5-min Rain = 0
KCR1 141047Z 01010KT 23/19 A3008 RMK A01 T02300187  RH  077%=      5-min Rain = 0
KCR1 141048Z 01010KT 23/19 A3008 RMK A01 T02290187  RH  077%=      5-min Rain = 0
KCR1 141049Z 01011KT 23/19 A3008 RMK A01 T02290187  RH  077%=      5-min Rain = 0
KCR1 141050Z 01011KT 23/19 A3009 RMK A01 T02290186  RH  077%=      5-min Rain = 0
KCR1 141051Z 01011KT 23/19 A3009 RMK A01 T02290186  RH  077%=      5-min Rain = 0
KCR1 141052Z 01011KT 23/19 A3009 RMK A01 T02290186  RH  077%=      5-min Rain = 0
KCR1 141053Z 02011KT 23/19 A3009 RMK A01 T02290186  RH  077%=      5-min Rain = 0
KCR1 141054Z 02010KT 23/19 A3009 RMK A01 T02280186  RH  077%=      5-min Rain = 0
KCR1 141055Z 02009KT 23/19 A3009 RMK A01 T02280186  RH  077%=      5-min Rain = 0
KCR1 141056Z 02011KT 23/19 A3009 RMK A01 T02280186  RH  077%=      5-min Rain = 0
KCR1 141057Z 02011KT 23/19 A3009 RMK A01 T02280186  RH  077%=      5-min Rain = 0
KCR1 141058Z 01011KT 23/19 A3009 RMK A01 T02280186  RH  077%=      5-min Rain = 0
KCR1 141059Z 02010KT 23/19 A3009 RMK A01 T02280186  RH  077%=      5-min Rain = 0
KCR1 141100Z 02010KT 23/19 A3009 RMK A01 T02280186  RH  077%=      5-min Rain = 0
KCR1 141101Z 02011KT 23/19 A3009 RMK A01 T02270186  RH  077%=      5-min Rain = 0
KCR1 141102Z 01010KT 23/19 A3009 RMK A01 T02270186  RH  077%=      5-min Rain = 0
KCR1 141103Z 02010KT 23/19 A3009 RMK A01 T02280186  RH  077%=      5-min Rain = 0
KCR1 141104Z 02009KT 23/19 A3009 RMK A01 T02270186  RH  077%=      5-min Rain = 0
KCR1 141105Z 02010KT 23/19 A3009 RMK A01 T02270186  RH  077%=      5-min Rain = 0
KCR1 141106Z 02009KT 23/19 A3009 RMK A01 T02270186  RH  077%=      5-min Rain = 0
KCR1 141107Z 01010KT 23/19 A3008 RMK A01 T02270186  RH  077%=      5-min Rain = 0
KCR1 141108Z 01010KT 23/19 A3008 RMK A01 T02270186  RH  077%=      5-min Rain = 0
KCR1 141109Z 01011KT 23/19 A3008 RMK A01 T02270186  RH  077%=      5-min Rain = 0
KCR1 141110Z 01010KT 23/19 A3008 RMK A01 T02270186  RH  077%=      5-min Rain = 0
KCR1 141111Z 01009KT 23/19 A3008 RMK A01 T02270185  RH  077%=      5-min Rain = 0
KCR1 141112Z 01010KT 23/19 A3008 RMK A01 T02270186  RH  078%=      5-min Rain = 0
KCR1 141113Z 01010KT 23/19 A3008 RMK A01 T02270186  RH  078%=      5-min Rain = 0
KCR1 141114Z 01010KT 23/19 A3008 RMK A01 T02260185  RH  078%=      5-min Rain = 0
KCR1 141115Z 01009KT 23/19 A3008 RMK A01 T02270186  RH  078%=      5-min Rain = 0
KCR1 141116Z 01009KT 23/19 A3009 RMK A01 T02270186  RH  078%=      5-min Rain = 0
KCR1 141117Z 00010KT 23/19 A3009 RMK A01 T02260185  RH  078%=      5-min Rain = 0
KCR1 141118Z 01009KT 23/19 A3009 RMK A01 T02260185  RH  078%=      5-min Rain = 0
KCR1 141119Z 01009KT 23/19 A3009 RMK A01 T02260186  RH  078%=      5-min Rain = 0
KCR1 141120Z 01010KT 23/19 A3009 RMK A01 T02260185  RH  078%=      5-min Rain = 0
KCR1 141121Z 01009KT 23/19 A3009 RMK A01 T02260185  RH  078%=      5-min Rain = 0
KCR1 141122Z 01008KT 23/19 A3009 RMK A01 T02250185  RH  078%=      5-min Rain = 0
KCR1 141123Z 01009KT 23/19 A3009 RMK A01 T02250185  RH  078%=      5-min Rain = 0
KCR1 141124Z 01009KT 23/19 A3008 RMK A01 T02250185  RH  078%=      5-min Rain = 0
KCR1 141125Z 01008KT 23/19 A3008 RMK A01 T02250185  RH  078%=      5-min Rain = 0
KCR1 141126Z 00009KT 23/19 A3008 RMK A01 T02250185  RH  078%=      5-min Rain = 0
KCR1 141127Z 01008KT 23/19 A3008 RMK A01 T02250185  RH  078%=      5-min Rain = 0
KCR1 141128Z 01009KT 22/19 A3008 RMK A01 T02240185  RH  078%=      5-min Rain = 0
KCR1 141129Z 01008KT 22/19 A3008 RMK A01 T02240185  RH  078%=      5-min Rain = 0
KCR1 141130Z 01007KT 22/19 A3008 RMK A01 T02240185  RH  078%=      5-min Rain = 0
KCR1 141131Z 01007KT 22/19 A3008 RMK A01 T02240185  RH  079%=      5-min Rain = 0
KCR1 141132Z 01008KT 22/19 A3008 RMK A01 T02240185  RH  079%=      5-min Rain = 0
KCR1 141133Z 01008KT 22/19 A3008 RMK A01 T02240185  RH  079%=      5-min Rain = 0
KCR1 141134Z 01007KT 22/18 A3008 RMK A01 T02230184  RH  079%=      5-min Rain = 0
KCR1 141135Z 01007KT 22/19 A3009 RMK A01 T02230185  RH  079%=      5-min Rain = 0
KCR1 141136Z 01007KT 22/19 A3009 RMK A01 T02230185  RH  079%=      5-min Rain = 0
KCR1 141137Z 01007KT 22/19 A3009 RMK A01 T02230185  RH  079%=      5-min Rain = 0
KCR1 141138Z 01007KT 22/19 A3009 RMK A01 T02230185  RH  079%=      5-min Rain = 0
KCR1 141139Z 01008KT 22/19 A3009 RMK A01 T02230185  RH  079%=      5-min Rain = 0
KCR1 141140Z 01008KT 22/19 A3009 RMK A01 T02230185  RH  079%=      5-min Rain = 0
KCR1 141141Z 00009KT 22/19 A3009 RMK A01 T02230185  RH  079%=      5-min Rain = 0
KCR1 141142Z 01008KT 22/19 A3009 RMK A01 T02230185  RH  079%=      5-min Rain = 0
KCR1 141143Z 01008KT 22/18 A3009 RMK A01 T02220184  RH  079%=      5-min Rain = 0
KCR1 141144Z 01008KT 22/18 A3009 RMK A01 T02220184  RH  079%=      5-min Rain = 0
KCR1 141145Z 01009KT 22/18 A3009 RMK A01 T02220184  RH  079%=      5-min Rain = 0
KCR1 141146Z 01009KT 22/19 A3009 RMK A01 T02220185  RH  079%=      5-min Rain = 0
KCR1 141147Z 01008KT 22/19 A3009 RMK A01 T02220185  RH  079%=      5-min Rain = 0
KCR1 141148Z 01008KT 22/18 A3009 RMK A01 T02220184  RH  079%=      5-min Rain = 0
KCR1 141149Z 01009KT 22/18 A3009 RMK A01 T02220184  RH  079%=      5-min Rain = 0
KCR1 141150Z 01009KT 22/19 A3009 RMK A01 T02220185  RH  079%=      5-min Rain = 0
KCR1 141151Z 00009KT 22/19 A3009 RMK A01 T02220185  RH  079%=      5-min Rain = 0
KCR1 141152Z 00008KT 22/19 A3009 RMK A01 T02220185  RH  079%=      5-min Rain = 0
KCR1 141153Z 01009KT 22/18 A3009 RMK A01 T02220184  RH  079%=      5-min Rain = 0
KCR1 141154Z 00009KT 22/19 A3009 RMK A01 T02220185  RH  079%=      5-min Rain = 0
KCR1 141155Z 00009KT 22/18 A3009 RMK A01 T02220184  RH  079%=      5-min Rain = 0
KCR1 141156Z 00009KT 22/19 A3009 RMK A01 T02220185  RH  079%=      5-min Rain = 0
KCR1 141157Z 01010KT 22/19 A3009 RMK A01 T02220185  RH  079%=      5-min Rain = 0
KCR1 141158Z 00010KT 22/18 A3009 RMK A01 T02210184  RH  080%=      5-min Rain = 0
KCR1 141159Z 00009KT 22/19 A3009 RMK A01 T02220185  RH  080%=      5-min Rain = 0
KCR1 141200Z 00010KT 22/18 A3009 RMK A01 T02210184  RH  080%=      5-min Rain = 0
KCR1 141201Z 00010KT 22/19 A3009 RMK A01 T02220185  RH  080%=      5-min Rain = 0
KCR1 141202Z 00010KT 22/19 A3009 RMK A01 T02220185  RH  080%=      5-min Rain = 0
KCR1 141203Z 00010KT 22/19 A3009 RMK A01 T02220185  RH  080%=      5-min Rain = 0
KCR1 141204Z 00010KT 22/19 A301 RMK A01 T02220185  RH  080%=      5-min Rain = 0
KCR1 141205Z 01011KT 22/18 A301 RMK A01 T02210184  RH  080%=      5-min Rain = 0
KCR1 141206Z 00009KT 22/18 A301 RMK A01 T02210184  RH  080%=      5-min Rain = 0
KCR1 141207Z 01011KT 22/18 A301 RMK A01 T02210184  RH  079%=      5-min Rain = 0
KCR1 141208Z 01011KT 22/18 A301 RMK A01 T02210184  RH  079%=      5-min Rain = 0
KCR1 141209Z 01010KT 22/19 A301 RMK A01 T02220185  RH  079%=      5-min Rain = 0
KCR1 141210Z 01010KT 22/19 A301 RMK A01 T02220185  RH  079%=      5-min Rain = 0
KCR1 141211Z 01011KT 22/19 A301 RMK A01 T02220185  RH  079%=      5-min Rain = 0
KCR1 141212Z 01010KT 22/18 A301 RMK A01 T02220184  RH  079%=      5-min Rain = 0
KCR1 141213Z 01010KT 22/19 A301 RMK A01 T02220185  RH  079%=      5-min Rain = 0
KCR1 141214Z 01010KT 22/19 A301 RMK A01 T02220185  RH  079%=      5-min Rain = 0
KCR1 141215Z 01010KT 22/19 A301 RMK A01 T02220185  RH  079%=      5-min Rain = 0
KCR1 141216Z 01009KT 22/19 A301 RMK A01 T02230185  RH  079%=      5-min Rain = 0
KCR1 141217Z 01009KT 22/19 A301 RMK A01 T02230185  RH  079%=      5-min Rain = 0
KCR1 141218Z 01009KT 22/19 A301 RMK A01 T02230185  RH  079%=      5-min Rain = 0
KCR1 141219Z 01010KT 22/19 A301 RMK A01 T02230185  RH  079%=      5-min Rain = 0
KCR1 141220Z 01011KT 22/19 A3011 RMK A01 T02230185  RH  079%=      5-min Rain = 0
KCR1 141221Z 01010KT 22/19 A3011 RMK A01 T02230185  RH  079%=      5-min Rain = 0
KCR1 141222Z 01011KT 22/19 A3011 RMK A01 T02240185  RH  079%=      5-min Rain = 0
KCR1 141223Z 01011KT 22/19 A3011 RMK A01 T02240185  RH  079%=      5-min Rain = 0
KCR1 141224Z 00010KT 22/19 A3011 RMK A01 T02240186  RH  079%=      5-min Rain = 0
KCR1 141225Z 01010KT 22/19 A3011 RMK A01 T02240186  RH  079%=      5-min Rain = 0
KCR1 141226Z 00010KT 23/19 A3011 RMK A01 T02250186  RH  079%=      5-min Rain = 0
KCR1 141227Z 01010KT 23/19 A3011 RMK A01 T02250186  RH  079%=      5-min Rain = 0
KCR1 141228Z 00010KT 23/19 A3011 RMK A01 T02260186  RH  078%=      5-min Rain = 0
KCR1 141229Z 00011KT 23/19 A3011 RMK A01 T02260186  RH  078%=      5-min Rain = 0
KCR1 141230Z 00011KT 23/19 A3011 RMK A01 T02260186  RH  078%=      5-min Rain = 0
KCR1 141231Z 01011KT 23/19 A3011 RMK A01 T02260186  RH  078%=      5-min Rain = 0
KCR1 141232Z 00011KT 23/19 A3011 RMK A01 T02260186  RH  078%=      5-min Rain = 0
KCR1 141233Z 36010KT 23/19 A3011 RMK A01 T02260186  RH  078%=      5-min Rain = 0
KCR1 141234Z 36010KT 23/19 A3012 RMK A01 T02270187  RH  078%=      5-min Rain = 0
KCR1 141235Z 00010KT 23/19 A3011 RMK A01 T02260187  RH  078%=      5-min Rain = 0
KCR1 141236Z 36010KT 23/19 A3011 RMK A01 T02260187  RH  078%=      5-min Rain = 0
KCR1 141237Z 00010KT 23/19 A3011 RMK A01 T02270187  RH  078%=      5-min Rain = 0
KCR1 141238Z 35008KT 23/19 A3011 RMK A01 T02260187  RH  078%=      5-min Rain = 0
KCR1 141239Z 01010KT 23/19 A3012 RMK A01 T02260187  RH  078%=      5-min Rain = 0
KCR1 141240Z 01009KT 23/19 A3012 RMK A01 T02270187  RH  078%=      5-min Rain = 0
KCR1 141241Z 00008KT 23/19 A3012 RMK A01 T02270187  RH  078%=      5-min Rain = 0
KCR1 141242Z 36009KT 23/19 A3012 RMK A01 T02270187  RH  078%=      5-min Rain = 0
KCR1 141243Z 01008KT 23/19 A3012 RMK A01 T02270187  RH  078%=      5-min Rain = 0
KCR1 141244Z 01007KT 23/19 A3012 RMK A01 T02270187  RH  078%=      5-min Rain = 0
KCR1 141245Z 01008KT 23/19 A3012 RMK A01 T02270187  RH  078%=      5-min Rain = 0
KCR1 141246Z 01009KT 23/19 A3012 RMK A01 T02270187  RH  078%=      5-min Rain = 0
KCR1 141247Z 01008KT 23/19 A3012 RMK A01 T02270187  RH  078%=      5-min Rain = 0
KCR1 141248Z 02009KT 23/19 A3012 RMK A01 T02270187  RH  078%=      5-min Rain = 0
KCR1 141249Z 01008KT 23/19 A3012 RMK A01 T02270187  RH  078%=      5-min Rain = 0
KCR1 141250Z 01008KT 23/19 A3012 RMK A01 T02270187  RH  078%=      5-min Rain = 0
KCR1 141251Z 01008KT 23/19 A3012 RMK A01 T02270187  RH  078%=      5-min Rain = 0
KCR1 141252Z 01007KT 23/19 A3012 RMK A01 T02280187  RH  078%=      5-min Rain = 0
KCR1 141253Z 01007KT 23/19 A3012 RMK A01 T02290188  RH  078%=      5-min Rain = 0
KCR1 141254Z 01008KT 23/19 A3012 RMK A01 T02290188  RH  078%=      5-min Rain = 0
KCR1 141255Z 01008KT 23/19 A3012 RMK A01 T02290188  RH  078%=      5-min Rain = 0
KCR1 141256Z 36007KT 23/19 A3012 RMK A01 T02280188  RH  078%=      5-min Rain = 0
KCR1 141257Z 01008KT 23/19 A3012 RMK A01 T02290188  RH  078%=      5-min Rain = 0
KCR1 141258Z 36008KT 23/19 A3013 RMK A01 T02290188  RH  078%=      5-min Rain = 0
KCR1 141259Z 00009KT 23/19 A3013 RMK A01 T02290188  RH  078%=      5-min Rain = 0
KCR1 141300Z 00008KT 23/19 A3013 RMK A01 T02290188  RH  078%=      5-min Rain = 0
KCR1 141301Z 00009KT 23/19 A3013 RMK A01 T02290188  RH  078%=      5-min Rain = 0
KCR1 141302Z 36010KT 23/19 A3013 RMK A01 T02300188  RH  077%=      5-min Rain = 0
KCR1 141303Z 00008KT 23/19 A3013 RMK A01 T02300189  RH  078%=      5-min Rain = 0
KCR1 141304Z 00009KT 23/19 A3013 RMK A01 T02300188  RH  077%=      5-min Rain = 0
KCR1 141305Z 01008KT 23/19 A3013 RMK A01 T02300189  RH  077%=      5-min Rain = 0
KCR1 141306Z 01009KT 23/19 A3012 RMK A01 T02300189  RH  078%=      5-min Rain = 0
KCR1 141307Z 01008KT 23/19 A3012 RMK A01 T02300189  RH  078%=      5-min Rain = 0
KCR1 141308Z 01008KT 23/19 A3012 RMK A01 T02300189  RH  078%=      5-min Rain = 0
KCR1 141309Z 01009KT 23/19 A3013 RMK A01 T02310189  RH  077%=      5-min Rain = 0
KCR1 141310Z 01010KT 23/19 A3013 RMK A01 T02310189  RH  077%=      5-min Rain = 0
KCR1 141311Z 01010KT 23/19 A3013 RMK A01 T02310189  RH  077%=      5-min Rain = 0
KCR1 141312Z 01008KT 23/19 A3013 RMK A01 T02310189  RH  077%=      5-min Rain = 0
KCR1 141313Z 01009KT 23/19 A3013 RMK A01 T02320189  RH  077%=      5-min Rain = 0
KCR1 141314Z 01008KT 23/19 A3013 RMK A01 T02330189  RH  077%=      5-min Rain = 0
KCR1 141315Z 01009KT 23/19 A3013 RMK A01 T02340190  RH  076%=      5-min Rain = 0
KCR1 141316Z 01009KT 24/19 A3013 RMK A01 T02350190  RH  076%=      5-min Rain = 0
KCR1 141317Z 36009KT 24/19 A3013 RMK A01 T02360190  RH  075%=      5-min Rain = 0
KCR1 141318Z 00009KT 24/19 A3013 RMK A01 T02370191  RH  075%=      5-min Rain = 0
KCR1 141319Z 00007KT 24/19 A3013 RMK A01 T02370191  RH  075%=      5-min Rain = 0
KCR1 141320Z 36007KT 24/19 A3013 RMK A01 T02380191  RH  075%=      5-min Rain = 0
KCR1 141321Z 36007KT 24/19 A3013 RMK A01 T02370191  RH  075%=      5-min Rain = 0
KCR1 141322Z 00007KT 24/19 A3013 RMK A01 T02380191  RH  075%=      5-min Rain = 0
KCR1 141323Z 01008KT 24/19 A3013 RMK A01 T02400191  RH  074%=      5-min Rain = 0
KCR1 141324Z 00008KT 24/19 A3013 RMK A01 T02400191  RH  074%=      5-min Rain = 0
KCR1 141325Z 01008KT 24/19 A3013 RMK A01 T02410192  RH  074%=      5-min Rain = 0
KCR1 141326Z 36010KT 24/19 A3013 RMK A01 T02420192  RH  073%=      5-min Rain = 0
KCR1 141327Z 00010KT 24/19 A3013 RMK A01 T02420191  RH  073%=      5-min Rain = 0
KCR1 141328Z 01009KT 24/19 A3013 RMK A01 T02410192  RH  074%=      5-min Rain = 0
KCR1 141329Z 01008KT 24/19 A3013 RMK A01 T02410192  RH  074%=      5-min Rain = 0
KCR1 141330Z 01008KT 24/19 A3013 RMK A01 T02420191  RH  074%=      5-min Rain = 0
KCR1 141331Z 01008KT 24/19 A3013 RMK A01 T02420192  RH  074%=      5-min Rain = 0
KCR1 141332Z 01008KT 24/19 A3012 RMK A01 T02420193  RH  074%=      5-min Rain = 0
KCR1 141333Z 01008KT 24/19 A3012 RMK A01 T02440193  RH  073%=      5-min Rain = 0
KCR1 141334Z 01009KT 25/19 A3012 RMK A01 T02450193  RH  073%=      5-min Rain = 0
KCR1 141335Z 01008KT 25/19 A3013 RMK A01 T02450193  RH  073%=      5-min Rain = 0
KCR1 141336Z 02009KT 24/19 A3013 RMK A01 T02440193  RH  073%=      5-min Rain = 0
KCR1 141337Z 02010KT 24/19 A3013 RMK A01 T02440193  RH  073%=      5-min Rain = 0
KCR1 141338Z 03009KT 24/19 A3013 RMK A01 T02440193  RH  073%=      5-min Rain = 0
KCR1 141339Z 02009KT 24/19 A3013 RMK A01 T02440194  RH  074%=      5-min Rain = 0
KCR1 141340Z 01009KT 25/19 A3013 RMK A01 T02450193  RH  073%=      5-min Rain = 0
KCR1 141341Z 02007KT 25/19 A3013 RMK A01 T02450193  RH  073%=      5-min Rain = 0
KCR1 141342Z 02007KT 25/19 A3013 RMK A01 T02460194  RH  073%=      5-min Rain = 0
KCR1 141343Z 01008KT 25/19 A3013 RMK A01 T02470194  RH  073%=      5-min Rain = 0
KCR1 141344Z 02008KT 25/19 A3013 RMK A01 T02470194  RH  072%=      5-min Rain = 0
KCR1 141345Z 03007KT 25/19 A3013 RMK A01 T02480194  RH  072%=      5-min Rain = 0
KCR1 141346Z 01007KT 25/20 A3013 RMK A01 T02470195  RH  073%=      5-min Rain = 0
KCR1 141347Z 03007KT 25/20 A3013 RMK A01 T02490196  RH  072%=      5-min Rain = 0
KCR1 141348Z 03008KT 25/20 A3013 RMK A01 T02500195  RH  072%=      5-min Rain = 0
KCR1 141349Z 03008KT 25/20 A3013 RMK A01 T02490196  RH  072%=      5-min Rain = 0
KCR1 141350Z 03008KT 25/20 A3013 RMK A01 T02480196  RH  073%=      5-min Rain = 0
KCR1 141351Z 04009KT 25/20 A3013 RMK A01 T02480196  RH  073%=      5-min Rain = 0
KCR1 141352Z 04010KT 25/20 A3013 RMK A01 T02480197  RH  073%=      5-min Rain = 0
KCR1 141353Z 05007KT 25/20 A3013 RMK A01 T02480197  RH  073%=      5-min Rain = 0
KCR1 141354Z 04008KT 25/20 A3013 RMK A01 T02480197  RH  073%=      5-min Rain = 0
KCR1 141355Z 03007KT 25/20 A3013 RMK A01 T02500196  RH  072%=      5-min Rain = 0
KCR1 141356Z 03009KT 25/20 A3013 RMK A01 T02500197  RH  072%=      5-min Rain = 0
KCR1 141357Z 03009KT 25/20 A3013 RMK A01 T02510198  RH  072%=      5-min Rain = 0
KCR1 141358Z 04008KT 25/20 A3013 RMK A01 T02510198  RH  072%=      5-min Rain = 0
KCR1 141359Z 04007KT 25/20 A3013 RMK A01 T02530198  RH  072%=      5-min Rain = 0
KCR1 141400Z 03006KT 25/20 A3013 RMK A01 T02530199  RH  072%=      5-min Rain = 0
KCR1 141401Z 03008KT 25/20 A3013 RMK A01 T02540198  RH  071%=      5-min Rain = 0
KCR1 141402Z 02008KT 25/20 A3013 RMK A01 T02540198  RH  071%=      5-min Rain = 0
KCR1 141403Z 02008KT 25/20 A3013 RMK A01 T02540199  RH  071%=      5-min Rain = 0
KCR1 141404Z 02009KT 26/20 A3013 RMK A01 T02550199  RH  071%=      5-min Rain = 0
KCR1 141405Z 05010KT 26/20 A3013 RMK A01 T02560200  RH  071%=      5-min Rain = 0
KCR1 141406Z 04009KT 26/20 A3013 RMK A01 T02580200  RH  070%=      5-min Rain = 0
KCR1 141407Z 04010KT 26/20 A3013 RMK A01 T02580200  RH  071%=      5-min Rain = 0
KCR1 141408Z 04010KT 26/20 A3013 RMK A01 T02590200  RH  070%=      5-min Rain = 0
KCR1 141409Z 03011KT 26/20 A3013 RMK A01 T02590200  RH  070%=      5-min Rain = 0
KCR1 141410Z 04011KT 26/20 A3013 RMK A01 T02590201  RH  071%=      5-min Rain = 0
KCR1 141411Z 04010KT 26/20 A3013 RMK A01 T02590201  RH  070%=      5-min Rain = 0
KCR1 141412Z 05009KT 26/20 A3013 RMK A01 T02590202  RH  071%=      5-min Rain = 0
KCR1 141413Z 02009KT 26/20 A3013 RMK A01 T02590201  RH  070%=      5-min Rain = 0
KCR1 141414Z 02010KT 26/20 A3013 RMK A01 T02600200  RH  070%=      5-min Rain = 0
KCR1 141415Z 02010KT 26/20 A3013 RMK A01 T02600201  RH  070%=      5-min Rain = 0
KCR1 141416Z 02010KT 26/20 A3013 RMK A01 T02610201  RH  070%=      5-min Rain = 0
KCR1 141417Z 01009KT 26/20 A3013 RMK A01 T02600201  RH  070%=      5-min Rain = 0
KCR1 141418Z 03009KT 26/20 A3013 RMK A01 T02600202  RH  070%=      5-min Rain = 0
KCR1 141419Z 04009KT 26/20 A3013 RMK A01 T02600202  RH  070%=      5-min Rain = 0
KCR1 141420Z 04007KT 26/20 A3013 RMK A01 T02600201  RH  070%=      5-min Rain = 0
KCR1 141421Z 04006KT 26/20 A3013 RMK A01 T02610202  RH  070%=      5-min Rain = 0
KCR1 141422Z 03008KT 26/20 A3013 RMK A01 T02620203  RH  070%=      5-min Rain = 0
KCR1 141423Z 02009KT 27/20 A3013 RMK A01 T02650203  RH  069%=      5-min Rain = 0
KCR1 141424Z 02007KT 27/20 A3013 RMK A01 T02650202  RH  068%=      5-min Rain = 0
KCR1 141425Z 02008KT 26/20 A3013 RMK A01 T02640203  RH  069%=      5-min Rain = 0
KCR1 141426Z 03009KT 26/20 A3013 RMK A01 T02630202  RH  069%=      5-min Rain = 0
KCR1 141427Z 03009KT 27/20 A3013 RMK A01 T02650203  RH  069%=      5-min Rain = 0
KCR1 141428Z 03007KT 27/20 A3013 RMK A01 T02650203  RH  069%=      5-min Rain = 0
KCR1 141429Z 03008KT 27/20 A3013 RMK A01 T02650203  RH  069%=      5-min Rain = 0
KCR1 141430Z 02008KT 26/20 A3013 RMK A01 T02630203  RH  069%=      5-min Rain = 0
KCR1 141431Z 03009KT 26/20 A3013 RMK A01 T02640203  RH  069%=      5-min Rain = 0
KCR1 141432Z 02009KT 27/20 A3013 RMK A01 T02650203  RH  069%=      5-min Rain = 0
KCR1 141433Z 01008KT 27/20 A3013 RMK A01 T02660203  RH  069%=      5-min Rain = 0
KCR1 141434Z 01008KT 27/20 A3013 RMK A01 T02660203  RH  068%=      5-min Rain = 0
KCR1 141435Z 00007KT 27/20 A3014 RMK A01 T02650203  RH  068%=      5-min Rain = 0
KCR1 141436Z 01007KT 27/20 A3014 RMK A01 T02660203  RH  068%=      5-min Rain = 0
KCR1 141437Z 01009KT 27/20 A3014 RMK A01 T02670203  RH  068%=      5-min Rain = 0
KCR1 141438Z 01006KT 27/20 A3014 RMK A01 T02670202  RH  068%=      5-min Rain = 0
KCR1 141439Z 02008KT 27/20 A3014 RMK A01 T02680204  RH  068%=      5-min Rain = 0
KCR1 141440Z 02007KT 27/20 A3014 RMK A01 T02690204  RH  067%=      5-min Rain = 0
KCR1 141441Z 03006KT 27/21 A3014 RMK A01 T02700205  RH  067%=      5-min Rain = 0
KCR1 141442Z 05005KT 27/20 A3014 RMK A01 T02700204  RH  067%=      5-min Rain = 0
KCR1 141443Z 03004KT 27/20 A3014 RMK A01 T02700204  RH  067%=      5-min Rain = 0
KCR1 141444Z 01004KT 27/21 A3014 RMK A01 T02710205  RH  067%=      5-min Rain = 0
KCR1 141445Z 01006KT 27/20 A3014 RMK A01 T02720204  RH  066%=      5-min Rain = 0
KCR1 141446Z 01005KT 27/20 A3014 RMK A01 T02730204  RH  066%=      5-min Rain = 0
KCR1 141447Z 00004KT 27/20 A3014 RMK A01 T02740204  RH  066%=      5-min Rain = 0
KCR1 141448Z 04007KT 28/21 A3014 RMK A01 T02750206  RH  066%=      5-min Rain = 0
KCR1 141449Z 03006KT 28/21 A3014 RMK A01 T02760207  RH  066%=      5-min Rain = 0
KCR1 141450Z 03006KT 28/21 A3014 RMK A01 T02760208  RH  067%=      5-min Rain = 0
KCR1 141451Z 04006KT 28/21 A3014 RMK A01 T02750208  RH  067%=      5-min Rain = 0
KCR1 141452Z 05007KT 28/21 A3014 RMK A01 T02750210  RH  068%=      5-min Rain = 0
KCR1 141453Z 05006KT 28/21 A3014 RMK A01 T02750209  RH  067%=      5-min Rain = 0
KCR1 141454Z 04005KT 28/21 A3014 RMK A01 T02750208  RH  067%=      5-min Rain = 0
KCR1 141455Z 05005KT 27/21 A3014 RMK A01 T02740208  RH  067%=      5-min Rain = 0
KCR1 141456Z 02004KT 27/21 A3014 RMK A01 T02740208  RH  067%=      5-min Rain = 0
KCR1 141457Z 03007KT 28/21 A3014 RMK A01 T02770208  RH  066%=      5-min Rain = 0
KCR1 141458Z 03006KT 28/21 A3014 RMK A01 T02780208  RH  066%=      5-min Rain = 0
KCR1 141459Z 04006KT 28/21 A3014 RMK A01 T02780208  RH  066%=      5-min Rain = 0
KCR1 141500Z 03004KT 28/21 A3014 RMK A01 T02770208  RH  066%=      5-min Rain = 0
KCR1 141501Z 04004KT 28/21 A3014 RMK A01 T02760208  RH  066%=      5-min Rain = 0
KCR1 141502Z 03003KT 28/21 A3014 RMK A01 T02770207  RH  066%=      5-min Rain = 0
KCR1 141503Z 04003KT 28/21 A3014 RMK A01 T02780208  RH  066%=      5-min Rain = 0
KCR1 141504Z 01005KT 28/21 A3014 RMK A01 T02790207  RH  065%=      5-min Rain = 0
KCR1 141505Z 36005KT 28/21 A3014 RMK A01 T02800208  RH  065%=      5-min Rain = 0
KCR1 141506Z 00005KT 28/21 A3014 RMK A01 T02820208  RH  064%=      5-min Rain = 0
KCR1 141507Z 01006KT 28/21 A3014 RMK A01 T02820209  RH  065%=      5-min Rain = 0
KCR1 141508Z 03006KT 28/21 A3014 RMK A01 T02820209  RH  065%=      5-min Rain = 0
KCR1 141509Z 01005KT 28/21 A3014 RMK A01 T02820208  RH  064%=      5-min Rain = 0
KCR1 141510Z 01004KT 28/21 A3014 RMK A01 T02830209  RH  064%=      5-min Rain = 0
KCR1 141511Z 36006KT 29/21 A3014 RMK A01 T02850209  RH  064%=      5-min Rain = 0
KCR1 141512Z 36006KT 29/21 A3014 RMK A01 T02850209  RH  063%=      5-min Rain = 0
KCR1 141513Z 03005KT 28/21 A3014 RMK A01 T02840210  RH  064%=      5-min Rain = 0
KCR1 141514Z 02006KT 28/21 A3014 RMK A01 T02840209  RH  064%=      5-min Rain = 0
KCR1 141515Z 02005KT 29/21 A3014 RMK A01 T02860209  RH  063%=      5-min Rain = 0
KCR1 141516Z 02006KT 29/21 A3014 RMK A01 T02870209  RH  063%=      5-min Rain = 0
KCR1 141517Z 02005KT 29/21 A3014 RMK A01 T02880209  RH  062%=      5-min Rain = 0
KCR1 141518Z 02004KT 29/21 A3014 RMK A01 T02870208  RH  062%=      5-min Rain = 0
KCR1 141519Z 03004KT 29/21 A3014 RMK A01 T02870209  RH  063%=      5-min Rain = 0
KCR1 141520Z 04006KT 29/21 A3014 RMK A01 T02860209  RH  063%=      5-min Rain = 0
KCR1 141521Z 02007KT 29/21 A3014 RMK A01 T02860210  RH  063%=      5-min Rain = 0
KCR1 141522Z 36006KT 29/21 A3014 RMK A01 T02870207  RH  062%=      5-min Rain = 0
KCR1 141523Z 01008KT 29/21 A3014 RMK A01 T02880208  RH  062%=      5-min Rain = 0
KCR1 141524Z 03007KT 29/21 A3014 RMK A01 T02890209  RH  062%=      5-min Rain = 0
KCR1 141525Z 03007KT 29/21 A3014 RMK A01 T02940210  RH  061%=      5-min Rain = 0
KCR1 141526Z 02006KT 30/21 A3014 RMK A01 T02950209  RH  060%=      5-min Rain = 0
KCR1 141527Z 36007KT 29/21 A3014 RMK A01 T02940211  RH  061%=      5-min Rain = 0
KCR1 141528Z 04007KT 29/21 A3014 RMK A01 T02930209  RH  061%=      5-min Rain = 0
KCR1 141529Z 04007KT 29/21 A3014 RMK A01 T02940209  RH  060%=      5-min Rain = 0
KCR1 141530Z 02005KT 29/21 A3014 RMK A01 T02940209  RH  061%=      5-min Rain = 0
KCR1 141531Z 35007KT 29/21 A3014 RMK A01 T02940210  RH  060%=      5-min Rain = 0
KCR1 141532Z 01005KT 29/21 A3014 RMK A01 T02940209  RH  060%=      5-min Rain = 0
KCR1 141533Z 02007KT 29/21 A3014 RMK A01 T02930210  RH  061%=      5-min Rain = 0
KCR1 141534Z 02008KT 29/21 A3014 RMK A01 T02930210  RH  061%=      5-min Rain = 0
KCR1 141535Z 02006KT 29/21 A3014 RMK A01 T02920209  RH  061%=      5-min Rain = 0
KCR1 141536Z 01005KT 29/21 A3014 RMK A01 T02910209  RH  061%=      5-min Rain = 0
KCR1 141537Z 03008KT 29/21 A3014 RMK A01 T02900209  RH  061%=      5-min Rain = 0
KCR1 141538Z 04008KT 29/21 A3014 RMK A01 T02900209  RH  062%=      5-min Rain = 0
KCR1 141539Z 03009KT 29/21 A3013 RMK A01 T02910208  RH  061%=      5-min Rain = 0
KCR1 141540Z 03006KT 29/21 A3014 RMK A01 T02930208  RH  060%=      5-min Rain = 0
KCR1 141541Z 01004KT 29/21 A3014 RMK A01 T02930208  RH  060%=      5-min Rain = 0
KCR1 141542Z 01006KT 30/21 A3014 RMK A01 T02950208  RH  059%=      5-min Rain = 0
KCR1 141543Z 01009KT 30/21 A3014 RMK A01 T02970210  RH  059%=      5-min Rain = 0
KCR1 141544Z 00009KT 30/21 A3014 RMK A01 T03000208  RH  058%=      5-min Rain = 0
KCR1 141545Z 36006KT 30/21 A3014 RMK A01 T02990209  RH  059%=      5-min Rain = 0
KCR1 141546Z 01007KT 30/21 A3014 RMK A01 T02990210  RH  059%=      5-min Rain = 0
KCR1 141547Z 01005KT 30/21 A3014 RMK A01 T02990209  RH  059%=      5-min Rain = 0
KCR1 141548Z 01007KT 30/21 A3013 RMK A01 T02980209  RH  059%=      5-min Rain = 0
KCR1 141549Z 02009KT 30/21 A3013 RMK A01 T02980209  RH  059%=      5-min Rain = 0
KCR1 141550Z 04010KT 30/21 A3013 RMK A01 T02990209  RH  059%=      5-min Rain = 0
KCR1 141551Z 03009KT 30/21 A3013 RMK A01 T03000210  RH  059%=      5-min Rain = 0
KCR1 141552Z 03006KT 30/21 A3013 RMK A01 T02990209  RH  058%=      5-min Rain = 0
KCR1 141553Z 03010KT 30/21 A3013 RMK A01 T02990209  RH  059%=      5-min Rain = 0
KCR1 141554Z 02008KT 30/21 A3013 RMK A01 T03000207  RH  058%=      5-min Rain = 0
KCR1 141555Z 02004KT 30/21 A3013 RMK A01 T02990206  RH  058%=      5-min Rain = 0
KCR1 141556Z 02007KT 30/21 A3013 RMK A01 T02990208  RH  058%=      5-min Rain = 0
KCR1 141557Z 02008KT 30/21 A3013 RMK A01 T03020210  RH  058%=      5-min Rain = 0
KCR1 141558Z 02010KT 31/21 A3013 RMK A01 T03050209  RH  057%=      5-min Rain = 0
KCR1 141559Z 01010KT 31/21 A3013 RMK A01 T03060209  RH  056%=      5-min Rain = 0
KCR1 141600Z 36009KT 31/21 A3013 RMK A01 T03050208  RH  056%=      5-min Rain = 0
KCR1 141601Z 00008KT 30/21 A3013 RMK A01 T03040208  RH  056%=      5-min Rain = 0
KCR1 141602Z 02005KT 30/21 A3013 RMK A01 T03020208  RH  057%=      5-min Rain = 0
KCR1 141603Z 01005KT 30/21 A3013 RMK A01 T03010208  RH  058%=      5-min Rain = 0
KCR1 141604Z 02007KT 30/21 A3013 RMK A01 T03010209  RH  058%=      5-min Rain = 0
KCR1 141605Z 02009KT 30/21 A3013 RMK A01 T03030210  RH  058%=      5-min Rain = 0
KCR1 141606Z 01008KT 30/21 A3013 RMK A01 T03040209  RH  057%=      5-min Rain = 0
KCR1 141607Z 01007KT 31/21 A3013 RMK A01 T03050209  RH  057%=      5-min Rain = 0
KCR1 141608Z 01008KT 31/21 A3013 RMK A01 T03070210  RH  056%=      5-min Rain = 0
KCR1 141609Z 02008KT 31/21 A3013 RMK A01 T03080211  RH  056%=      5-min Rain = 0
KCR1 141610Z 02007KT 31/21 A3013 RMK A01 T03080211  RH  056%=      5-min Rain = 0
KCR1 141611Z 00008KT 31/21 A3013 RMK A01 T03060211  RH  057%=      5-min Rain = 0
KCR1 141612Z 35011KT 31/21 A3013 RMK A01 T03060209  RH  056%=      5-min Rain = 0
KCR1 141613Z 00012KT 31/21 A3013 RMK A01 T03060210  RH  057%=      5-min Rain = 0
KCR1 141614Z 00011KT 31/21 A3013 RMK A01 T03070209  RH  056%=      5-min Rain = 0
KCR1 141615Z 02009KT 31/21 A3013 RMK A01 T03070210  RH  056%=      5-min Rain = 0
KCR1 141616Z 02008KT 31/21 A3013 RMK A01 T03070210  RH  056%=      5-min Rain = 0
KCR1 141617Z 01006KT 31/21 A3013 RMK A01 T03060210  RH  056%=      5-min Rain = 0
KCR1 141618Z 36004KT 31/21 A3013 RMK A01 T03050209  RH  057%=      5-min Rain = 0
KCR1 141619Z 02007KT 31/21 A3013 RMK A01 T03060210  RH  057%=      5-min Rain = 0
KCR1 141620Z 02009KT 31/21 A3013 RMK A01 T03070209  RH  056%=      5-min Rain = 0
KCR1 141621Z 03011KT 31/21 A3013 RMK A01 T03090208  RH  055%=      5-min Rain = 0
KCR1 141622Z 05008KT 31/21 A3013 RMK A01 T03100205  RH  054%=      5-min Rain = 0
KCR1 141623Z 02009KT 31/21 A3013 RMK A01 T03090207  RH  054%=      5-min Rain = 0
KCR1 141624Z 03007KT 31/21 A3013 RMK A01 T03100207  RH  054%=      5-min Rain = 0
KCR1 141625Z 03006KT 31/21 A3013 RMK A01 T03100208  RH  055%=      5-min Rain = 0
KCR1 141626Z 04008KT 31/21 A3013 RMK A01 T03090210  RH  056%=      5-min Rain = 0
KCR1 141627Z 05009KT 31/21 A3013 RMK A01 T03100209  RH  055%=      5-min Rain = 0
KCR1 141628Z 06010KT 31/21 A3013 RMK A01 T03120209  RH  054%=      5-min Rain = 0
KCR1 141629Z 07008KT 31/21 A3013 RMK A01 T03120209  RH  054%=      5-min Rain = 0
KCR1 141630Z 06008KT 31/21 A3013 RMK A01 T03100209  RH  055%=      5-min Rain = 0
KCR1 141631Z 06009KT 31/21 A3013 RMK A01 T03100210  RH  055%=      5-min Rain = 0
KCR1 141632Z 05009KT 31/21 A3013 RMK A01 T03100209  RH  055%=      5-min Rain = 0
KCR1 141633Z 04011KT 31/21 A3013 RMK A01 T03100208  RH  055%=      5-min Rain = 0
KCR1 141634Z 03009KT 31/21 A3013 RMK A01 T03120207  RH  054%=      5-min Rain = 0
KCR1 141635Z 03010KT 31/21 A3013 RMK A01 T03120208  RH  054%=      5-min Rain = 0
KCR1 141636Z 01008KT 31/21 A3013 RMK A01 T03120208  RH  054%=      5-min Rain = 0
KCR1 141637Z 01007KT 31/21 A3013 RMK A01 T03120207  RH  054%=      5-min Rain = 0
KCR1 141638Z 02008KT 31/21 A3013 RMK A01 T03120208  RH  054%=      5-min Rain = 0
KCR1 141639Z 00009KT 31/21 A3013 RMK A01 T03120206  RH  053%=      5-min Rain = 0
KCR1 141640Z 01009KT 31/21 A3013 RMK A01 T03120206  RH  053%=      5-min Rain = 0
KCR1 141641Z 01010KT 32/21 A3013 RMK A01 T03150206  RH  052%=      5-min Rain = 0
KCR1 141642Z 03010KT 32/21 A3013 RMK A01 T03160209  RH  053%=      5-min Rain = 0
KCR1 141643Z 06011KT 32/21 A3013 RMK A01 T03170207  RH  052%=      5-min Rain = 0
KCR1 141644Z 04013KT 32/21 A3013 RMK A01 T03180206  RH  051%=      5-min Rain = 0
KCR1 141645Z 03011KT 32/20 A3013 RMK A01 T03160204  RH  051%=      5-min Rain = 0
KCR1 141646Z 03010KT 31/21 A3013 RMK A01 T03140206  RH  053%=      5-min Rain = 0
KCR1 141647Z 04007KT 31/21 A3013 RMK A01 T03120206  RH  053%=      5-min Rain = 0
KCR1 141648Z 03006KT 31/21 A3013 RMK A01 T03100207  RH  054%=      5-min Rain = 0
KCR1 141649Z 03008KT 31/21 A3013 RMK A01 T03140205  RH  052%=      5-min Rain = 0
KCR1 141650Z 03009KT 32/21 A3013 RMK A01 T03210207  RH  051%=      5-min Rain = 0
KCR1 141651Z 03012KT 32/21 A3013 RMK A01 T03230208  RH  051%=      5-min Rain = 0
KCR1 141652Z 03011KT 32/21 A3013 RMK A01 T03210208  RH  051%=      5-min Rain = 0
KCR1 141653Z 03007KT 32/21 A3013 RMK A01 T03160205  RH  052%=      5-min Rain = 0
KCR1 141654Z 02008KT 31/21 A3013 RMK A01 T03120206  RH  054%=      5-min Rain = 0
KCR1 141655Z 36008KT 31/21 A3013 RMK A01 T03140206  RH  053%=      5-min Rain = 0
KCR1 141656Z 36007KT 32/21 A3013 RMK A01 T03170206  RH  052%=      5-min Rain = 0
KCR1 141657Z 00008KT 32/21 A3013 RMK A01 T03170206  RH  052%=      5-min Rain = 0
KCR1 141658Z 00008KT 32/21 A3013 RMK A01 T03170206  RH  052%=      5-min Rain = 0
KCR1 141659Z 02008KT 32/21 A3013 RMK A01 T03160208  RH  053%=      5-min Rain = 0
KCR1 141700Z 03011G16KT 32/21 A3013 RMK A01 T03190209  RH  052%=      5-min Rain = 0
KCR1 141701Z 03012KT 32/21 A3013 RMK A01 T03220209  RH  051%=      5-min Rain = 0
KCR1 141702Z 04010KT 32/21 A3012 RMK A01 T03200207  RH  051%=      5-min Rain = 0
KCR1 141703Z 03011KT 32/21 A3012 RMK A01 T03160209  RH  053%=      5-min Rain = 0
KCR1 141704Z 02010KT 32/21 A3012 RMK A01 T03190211  RH  053%=      5-min Rain = 0
KCR1 141705Z 05008KT 32/21 A3012 RMK A01 T03220211  RH  052%=      5-min Rain = 0
KCR1 141706Z 04006KT 32/21 A3012 RMK A01 T03210211  RH  053%=      5-min Rain = 0
KCR1 141707Z 04004KT 32/21 A3012 RMK A01 T03170211  RH  053%=      5-min Rain = 0
KCR1 141708Z 04007KT 32/21 A3012 RMK A01 T03150210  RH  054%=      5-min Rain = 0
KCR1 141709Z 04011KT 32/21 A3012 RMK A01 T03160209  RH  053%=      5-min Rain = 0
KCR1 141710Z 06012KT 32/21 A3012 RMK A01 T03200210  RH  052%=      5-min Rain = 0
KCR1 141711Z 04014KT 32/21 A3012 RMK A01 T03220210  RH  052%=      5-min Rain = 0
KCR1 141712Z 04011KT 32/21 A3012 RMK A01 T03200209  RH  052%=      5-min Rain = 0
KCR1 141713Z 03010KT 32/21 A3012 RMK A01 T03190209  RH  052%=      5-min Rain = 0
KCR1 141714Z 03008KT 32/21 A3012 RMK A01 T03200211  RH  052%=      5-min Rain = 0
KCR1 141715Z 04007KT 32/21 A3012 RMK A01 T03210210  RH  052%=      5-min Rain = 0
KCR1 141716Z 06005KT 32/21 A3011 RMK A01 T03190211  RH  053%=      5-min Rain = 0
KCR1 141717Z 08009KT 32/21 A3011 RMK A01 T03170211  RH  053%=      5-min Rain = 0
KCR1 141718Z 05007KT 32/21 A3011 RMK A01 T03180210  RH  053%=      5-min Rain = 0
KCR1 141719Z 06006KT 32/21 A3011 RMK A01 T03170211  RH  053%=      5-min Rain = 0
KCR1 141720Z 06009G14KT 32/21 A3011 RMK A01 T03180211  RH  053%=      5-min Rain = 0
KCR1 141721Z 04012KT 32/21 A3011 RMK A01 T03230212  RH  052%=      5-min Rain = 0
KCR1 141722Z 05012KT 33/21 A3011 RMK A01 T03250212  RH  051%=      5-min Rain = 0
KCR1 141723Z 07010KT 32/21 A3011 RMK A01 T03240212  RH  052%=      5-min Rain = 0
KCR1 141724Z 08008KT 32/21 A3011 RMK A01 T03220212  RH  052%=      5-min Rain = 0
KCR1 141725Z 08007KT 32/21 A3011 RMK A01 T03200210  RH  052%=      5-min Rain = 0
KCR1 141726Z 05006G11KT 32/21 A3011 RMK A01 T03170210  RH  053%=      5-min Rain = 0
KCR1 141727Z 04012KT 32/21 A3011 RMK A01 T03180210  RH  053%=      5-min Rain = 0
KCR1 141728Z 02010KT 32/21 A3011 RMK A01 T03230211  RH  052%=      5-min Rain = 0
KCR1 141729Z 01007KT 32/21 A3011 RMK A01 T03240211  RH  051%=      5-min Rain = 0
KCR1 141730Z 01007KT 32/21 A3011 RMK A01 T03230211  RH  052%=      5-min Rain = 0
KCR1 141731Z 03011KT 32/21 A3011 RMK A01 T03220211  RH  052%=      5-min Rain = 0
KCR1 141732Z 04010KT 32/21 A301 RMK A01 T03230211  RH  052%=      5-min Rain = 0
KCR1 141733Z 05010KT 33/21 A301 RMK A01 T03260211  RH  051%=      5-min Rain = 0
KCR1 141734Z 04008KT 33/21 A301 RMK A01 T03250211  RH  051%=      5-min Rain = 0
KCR1 141735Z 04006KT 33/21 A301 RMK A01 T03250210  RH  051%=      5-min Rain = 0
KCR1 141736Z 02006KT 32/21 A301 RMK A01 T03220212  RH  052%=      5-min Rain = 0
KCR1 141737Z 04006KT 32/21 A301 RMK A01 T03220212  RH  052%=      5-min Rain = 0
KCR1 141738Z 08008KT 32/21 A301 RMK A01 T03230212  RH  052%=      5-min Rain = 0
KCR1 141739Z 08008KT 32/21 A301 RMK A01 T03240211  RH  052%=      5-min Rain = 0
KCR1 141740Z 06007G12KT 32/21 A301 RMK A01 T03230212  RH  052%=      5-min Rain = 0
KCR1 141741Z 05007KT 32/21 A301 RMK A01 T03220211  RH  052%=      5-min Rain = 0
KCR1 141742Z 02008KT 32/21 A301 RMK A01 T03210211  RH  052%=      5-min Rain = 0
KCR1 141743Z 01006KT 32/21 A301 RMK A01 T03200210  RH  052%=      5-min Rain = 0
KCR1 141744Z 03004KT 32/21 A301 RMK A01 T03180211  RH  053%=      5-min Rain = 0
KCR1 141745Z 04011KT 32/21 A301 RMK A01 T03190212  RH  053%=      5-min Rain = 0
KCR1 141746Z 06011KT 32/21 A301 RMK A01 T03220211  RH  052%=      5-min Rain = 0
KCR1 141747Z 06008G13KT 33/21 A301 RMK A01 T03250212  RH  051%=      5-min Rain = 0
KCR1 141748Z 06009KT 33/21 A301 RMK A01 T03250212  RH  051%=      5-min Rain = 0
KCR1 141749Z 04008KT 32/21 A301 RMK A01 T03240211  RH  051%=      5-min Rain = 0
KCR1 141750Z 04007KT 32/21 A301 RMK A01 T03230210  RH  051%=      5-min Rain = 0
KCR1 141751Z 04008KT 33/21 A301 RMK A01 T03250212  RH  051%=      5-min Rain = 0
KCR1 141752Z 04009KT 33/21 A301 RMK A01 T03310211  RH  049%=      5-min Rain = 0
KCR1 141753Z 03008KT 33/21 A3009 RMK A01 T03300210  RH  050%=      5-min Rain = 0
KCR1 141754Z 04008KT 33/21 A3009 RMK A01 T03250210  RH  051%=      5-min Rain = 0
KCR1 141755Z 06008KT 32/21 A3009 RMK A01 T03210208  RH  051%=      5-min Rain = 0
KCR1 141756Z 05011KT 32/21 A3009 RMK A01 T03230209  RH  051%=      5-min Rain = 0
KCR1 141757Z 06010KT 33/21 A3009 RMK A01 T03270209  RH  050%=      5-min Rain = 0
KCR1 141758Z 04010KT 33/21 A3009 RMK A01 T03270209  RH  050%=      5-min Rain = 0
KCR1 141759Z 04007KT 33/21 A3009 RMK A01 T03260207  RH  050%=      5-min Rain = 0
KCR1 141800Z 04007KT 32/21 A3009 RMK A01 T03240207  RH  050%=      5-min Rain = 0
KCR1 141801Z 03007KT 32/21 A3009 RMK A01 T03230205  RH  050%=      5-min Rain = 0
KCR1 141802Z 02006KT 32/21 A3009 RMK A01 T03220205  RH  050%=      5-min Rain = 0
KCR1 141803Z 02005KT 32/21 A3009 RMK A01 T03220206  RH  051%=      5-min Rain = 0
KCR1 141804Z 05006KT 32/21 A3009 RMK A01 T03240210  RH  051%=      5-min Rain = 0
KCR1 141805Z 03011KT 33/21 A3009 RMK A01 T03320208  RH  048%=      5-min Rain = 0
KCR1 141806Z 03011KT 34/21 A3009 RMK A01 T03380206  RH  046%=      5-min Rain = 0
KCR1 141807Z 03009KT 34/21 A3009 RMK A01 T03370207  RH  047%=      5-min Rain = 0
KCR1 141808Z 03009KT 33/21 A3009 RMK A01 T03320205  RH  047%=      5-min Rain = 0
KCR1 141809Z 02008KT 33/21 A3009 RMK A01 T03290205  RH  048%=      5-min Rain = 0
KCR1 141810Z 04005KT 33/21 A3009 RMK A01 T03280206  RH  049%=      5-min Rain = 0
KCR1 141811Z 06009KT 33/21 A3009 RMK A01 T03260207  RH  050%=      5-min Rain = 0
KCR1 141812Z 05006KT 33/21 A3009 RMK A01 T03250209  RH  050%=      5-min Rain = 0
KCR1 141813Z 06008KT 32/21 A3009 RMK A01 T03240208  RH  050%=      5-min Rain = 0
KCR1 141814Z 08006KT 33/20 A3009 RMK A01 T03250204  RH  049%=      5-min Rain = 0
KCR1 141815Z 09010G16KT 33/20 A3009 RMK A01 T03260202  RH  048%=      5-min Rain = 0
KCR1 141816Z 07013KT 33/21 A3008 RMK A01 T03260205  RH  049%=      5-min Rain = 0
KCR1 141817Z 06014KT 33/20 A3008 RMK A01 T03280202  RH  047%=      5-min Rain = 0
KCR1 141818Z 06012KT 33/20 A3009 RMK A01 T03300202  RH  047%=      5-min Rain = 0
KCR1 141819Z 05010KT 33/20 A3009 RMK A01 T03320203  RH  047%=      5-min Rain = 0
KCR1 141820Z 05009KT 33/20 A3009 RMK A01 T03300204  RH  048%=      5-min Rain = 0
KCR1 141821Z 05006KT 33/21 A3008 RMK A01 T03300205  RH  048%=      5-min Rain = 0
KCR1 141822Z 03009KT 33/21 A3008 RMK A01 T03310207  RH  048%=      5-min Rain = 0
KCR1 141823Z 07007KT 33/21 A3008 RMK A01 T03330206  RH  048%=      5-min Rain = 0
KCR1 141824Z 06007KT 33/21 A3008 RMK A01 T03320207  RH  048%=      5-min Rain = 0
KCR1 141825Z 06007G12KT 33/21 A3008 RMK A01 T03320207  RH  048%=      5-min Rain = 0
KCR1 141826Z 06009KT 33/21 A3008 RMK A01 T03310205  RH  047%=      5-min Rain = 0
KCR1 141827Z 06009KT 33/20 A3008 RMK A01 T03320204  RH  047%=      5-min Rain = 0
KCR1 141828Z 04012KT 33/20 A3008 RMK A01 T03300202  RH  047%=      5-min Rain = 0
KCR1 141829Z 05010KT 33/20 A3008 RMK A01 T03290203  RH  048%=      5-min Rain = 0
KCR1 141830Z 07008KT 33/21 A3008 RMK A01 T03280205  RH  048%=      5-min Rain = 0
KCR1 141831Z 09007KT 33/20 A3008 RMK A01 T03310201  RH  046%=      5-min Rain = 0
KCR1 141832Z 06007KT 33/20 A3008 RMK A01 T03310202  RH  047%=      5-min Rain = 0
KCR1 141833Z 03005KT 33/20 A3008 RMK A01 T03330202  RH  046%=      5-min Rain = 0
KCR1 141834Z 06004KT 33/20 A3008 RMK A01 T03330202  RH  046%=      5-min Rain = 0
KCR1 141835Z 07005KT 33/21 A3008 RMK A01 T03320205  RH  047%=      5-min Rain = 0
KCR1 141836Z 05006KT 33/21 A3008 RMK A01 T03340207  RH  048%=      5-min Rain = 0
KCR1 141837Z 05006KT 33/21 A3008 RMK A01 T03330207  RH  048%=      5-min Rain = 0
KCR1 141838Z 06012KT 33/20 A3008 RMK A01 T03310202  RH  047%=      5-min Rain = 0
KCR1 141839Z 05013KT 33/20 A3008 RMK A01 T03310198  RH  046%=      5-min Rain = 0
KCR1 141840Z 04011KT 33/20 A3008 RMK A01 T03330199  RH  045%=      5-min Rain = 0
KCR1 141841Z 03011KT 33/20 A3008 RMK A01 T03340200  RH  046%=      5-min Rain = 0
KCR1 141842Z 03009KT 34/20 A3008 RMK A01 T03360201  RH  045%=      5-min Rain = 0
KCR1 141843Z 03007KT 34/20 A3008 RMK A01 T03350202  RH  046%=      5-min Rain = 0
KCR1 141844Z 05008KT 33/21 A3008 RMK A01 T03340205  RH  047%=      5-min Rain = 0
KCR1 141845Z 06010KT 34/21 A3008 RMK A01 T03350205  RH  047%=      5-min Rain = 0
KCR1 141846Z 06012G17KT 34/20 A3008 RMK A01 T03360204  RH  046%=      5-min Rain = 0
KCR1 141847Z 05013KT 34/21 A3008 RMK A01 T03390205  RH  045%=      5-min Rain = 0
KCR1 141848Z 07011KT 34/20 A3008 RMK A01 T03410204  RH  045%=      5-min Rain = 0
KCR1 141849Z 07008KT 34/20 A3008 RMK A01 T03390202  RH  045%=      5-min Rain = 0
KCR1 141850Z 05009KT 34/20 A3008 RMK A01 T03390204  RH  045%=      5-min Rain = 0
KCR1 141851Z 06009KT 34/21 A3008 RMK A01 T03430207  RH  045%=      5-min Rain = 0
KCR1 141852Z 02010KT 35/20 A3008 RMK A01 T03450201  RH  043%=      5-min Rain = 0
KCR1 141853Z 05009KT 34/20 A3008 RMK A01 T03430201  RH  043%=      5-min Rain = 0
KCR1 141854Z 03008KT 34/20 A3007 RMK A01 T03430204  RH  044%=      5-min Rain = 0
KCR1 141855Z 04006KT 34/21 A3007 RMK A01 T03400205  RH  045%=      5-min Rain = 0
KCR1 141856Z 04005KT 34/20 A3007 RMK A01 T03400203  RH  045%=      5-min Rain = 0
KCR1 141857Z 06011KT 34/20 A3007 RMK A01 T03380202  RH  045%=      5-min Rain = 0
KCR1 141858Z 07011KT 34/20 A3007 RMK A01 T03380195  RH  043%=      5-min Rain = 0
KCR1 141859Z 07009KT 34/20 A3007 RMK A01 T03380196  RH  043%=      5-min Rain = 0
KCR1 141900Z 04007KT 34/20 A3007 RMK A01 T03370195  RH  043%=      5-min Rain = 0
KCR1 141901Z 06009KT 34/20 A3007 RMK A01 T03360197  RH  044%=      5-min Rain = 0
KCR1 141902Z 08008KT 34/20 A3007 RMK A01 T03380195  RH  043%=      5-min Rain = 0
KCR1 141903Z 08008KT 34/20 A3007 RMK A01 T03390196  RH  043%=      5-min Rain = 0
KCR1 141904Z 07007KT 34/20 A3007 RMK A01 T03400199  RH  044%=      5-min Rain = 0
KCR1 141905Z 08007KT 34/20 A3007 RMK A01 T03400203  RH  045%=      5-min Rain = 0
KCR1 141906Z 09009KT 34/20 A3007 RMK A01 T03440203  RH  044%=      5-min Rain = 0
KCR1 141907Z 08011KT 35/20 A3007 RMK A01 T03450200  RH  043%=      5-min Rain = 0
KCR1 141908Z 08010KT 34/20 A3007 RMK A01 T03440200  RH  043%=      5-min Rain = 0
KCR1 141909Z 06010G15KT 35/20 A3007 RMK A01 T03450199  RH  043%=      5-min Rain = 0
KCR1 141910Z 05008G14KT 35/19 A3007 RMK A01 T03460194  RH  041%=      5-min Rain = 0
KCR1 141911Z 04011KT 35/20 A3007 RMK A01 T03450198  RH  042%=      5-min Rain = 0
KCR1 141912Z 05010KT 35/20 A3007 RMK A01 T03480202  RH  043%=      5-min Rain = 0
KCR1 141913Z 04012KT 35/20 A3007 RMK A01 T03470199  RH  042%=      5-min Rain = 0
KCR1 141914Z 05010KT 35/18 A3007 RMK A01 T03460181  RH  038%=      5-min Rain = 0
KCR1 141915Z 06011KT 35/19 A3007 RMK A01 T03460187  RH  039%=      5-min Rain = 0
KCR1 141916Z 06010KT 35/19 A3007 RMK A01 T03470188  RH  039%=      5-min Rain = 0
KCR1 141917Z 06009KT 35/19 A3006 RMK A01 T03450187  RH  039%=      5-min Rain = 0
KCR1 141918Z 07007G14KT 34/19 A3006 RMK A01 T03430186  RH  040%=      5-min Rain = 0
KCR1 141919Z 05012G18KT 34/19 A3006 RMK A01 T03430188  RH  040%=      5-min Rain = 0
KCR1 141920Z 06011KT 35/19 A3006 RMK A01 T03450190  RH  040%=      5-min Rain = 0
KCR1 141921Z 09011G17KT 34/19 A3006 RMK A01 T03440193  RH  041%=      5-min Rain = 0
KCR1 141922Z 03012KT 35/19 A3006 RMK A01 T03450193  RH  041%=      5-min Rain = 0
KCR1 141923Z 03012KT 35/19 A3006 RMK A01 T03480194  RH  040%=      5-min Rain = 0
KCR1 141924Z 07012KT 35/20 A3006 RMK A01 T03480199  RH  042%=      5-min Rain = 0
KCR1 141925Z 08012KT 35/20 A3006 RMK A01 T03490196  RH  041%=      5-min Rain = 0
KCR1 141926Z 08008KT 35/20 A3006 RMK A01 T03460196  RH  041%=      5-min Rain = 0
KCR1 141927Z 08007KT 34/20 A3006 RMK A01 T03420198  RH  043%=      5-min Rain = 0
KCR1 141928Z 07005KT 34/20 A3006 RMK A01 T03420200  RH  043%=      5-min Rain = 0
KCR1 141929Z 05008G13KT 34/20 A3006 RMK A01 T03420200  RH  043%=      5-min Rain = 0
KCR1 141930Z 06007KT 35/20 A3006 RMK A01 T03450201  RH  043%=      5-min Rain = 0
KCR1 141931Z 07012KT 35/20 A3006 RMK A01 T03480196  RH  041%=      5-min Rain = 0
KCR1 141932Z 08010KT 35/19 A3006 RMK A01 T03490190  RH  039%=      5-min Rain = 0
KCR1 141933Z 06010KT 35/19 A3005 RMK A01 T03480190  RH  040%=      5-min Rain = 0
KCR1 141934Z 06011KT 35/19 A3005 RMK A01 T03500193  RH  040%=      5-min Rain = 0
KCR1 141935Z 07010G16KT 35/19 A3005 RMK A01 T03520193  RH  039%=      5-min Rain = 0
KCR1 141936Z 06013KT 35/19 A3005 RMK A01 T03520193  RH  040%=      5-min Rain = 0
KCR1 141937Z 05010KT 35/19 A3005 RMK A01 T03490193  RH  040%=      5-min Rain = 0
KCR1 141938Z 06011KT 35/19 A3005 RMK A01 T03470187  RH  039%=      5-min Rain = 0
KCR1 141939Z 06011KT 35/19 A3005 RMK A01 T03470192  RH  040%=      5-min Rain = 0
KCR1 141940Z 05009KT 35/19 A3005 RMK A01 T03520191  RH  039%=      5-min Rain = 0
KCR1 141941Z 05011KT 35/19 A3005 RMK A01 T03540188  RH  038%=      5-min Rain = 0
KCR1 141942Z 05011KT 35/18 A3005 RMK A01 T03540184  RH  037%=      5-min Rain = 0
KCR1 141943Z 05009KT 35/19 A3005 RMK A01 T03500191  RH  039%=      5-min Rain = 0
KCR1 141944Z 05014KT 35/19 A3005 RMK A01 T03540194  RH  039%=      5-min Rain = 0
KCR1 141945Z 06011KT 36/19 A3005 RMK A01 T03580194  RH  038%=      5-min Rain = 0
KCR1 141946Z 05016KT 36/20 A3005 RMK A01 T03580195  RH  038%=      5-min Rain = 0
KCR1 141947Z 05014G19KT 36/19 A3005 RMK A01 T03550194  RH  039%=      5-min Rain = 0
KCR1 141948Z 05015KT 35/19 A3005 RMK A01 T03510194  RH  040%=      5-min Rain = 0
KCR1 141949Z 06010KT 35/20 A3005 RMK A01 T03510195  RH  040%=      5-min Rain = 0
KCR1 141950Z 05005KT 35/20 A3005 RMK A01 T03490195  RH  040%=      5-min Rain = 0
KCR1 141951Z 04008KT 35/20 A3005 RMK A01 T03470195  RH  041%=      5-min Rain = 0
KCR1 141952Z 04011KT 35/20 A3005 RMK A01 T03500196  RH  040%=      5-min Rain = 0
KCR1 141953Z 03008KT 36/19 A3005 RMK A01 T03550194  RH  039%=      5-min Rain = 0
KCR1 141954Z 03008KT 35/19 A3005 RMK A01 T03540194  RH  039%=      5-min Rain = 0
KCR1 141955Z 05006KT 35/20 A3005 RMK A01 T03500195  RH  040%=      5-min Rain = 0
KCR1 141956Z 03009KT 35/19 A3005 RMK A01 T03500194  RH  040%=      5-min Rain = 0
KCR1 141957Z 03005KT 35/19 A3004 RMK A01 T03500193  RH  040%=      5-min Rain = 0
KCR1 141958Z 07007KT 35/19 A3004 RMK A01 T03480193  RH  040%=      5-min Rain = 0
KCR1 141959Z 09011KT 35/19 A3004 RMK A01 T03490193  RH  040%=      5-min Rain = 0
KCR1 142000Z 06012G19KT 35/19 A3004 RMK A01 T03530192  RH  039%=      5-min Rain = 0
KCR1 142001Z 05015KT 36/19 A3004 RMK A01 T03580188  RH  037%=      5-min Rain = 0
KCR1 142002Z 06015KT 36/19 A3004 RMK A01 T03560185  RH  037%=      5-min Rain = 0
KCR1 142003Z 05014KT 36/19 A3004 RMK A01 T03550186  RH  037%=      5-min Rain = 0
KCR1 142004Z 06009KT 35/19 A3004 RMK A01 T03540187  RH  037%=      5-min Rain = 0
KCR1 142005Z 05009KT 35/19 A3004 RMK A01 T03530185  RH  037%=      5-min Rain = 0
KCR1 142006Z 05007KT 35/18 A3004 RMK A01 T03520182  RH  037%=      5-min Rain = 0
KCR1 142007Z 07007KT 35/18 A3004 RMK A01 T03500184  RH  038%=      5-min Rain = 0
KCR1 142008Z 08010KT 35/19 A3004 RMK A01 T03500187  RH  038%=      5-min Rain = 0
KCR1 142009Z 07007KT 35/19 A3004 RMK A01 T03510186  RH  038%=      5-min Rain = 0
KCR1 142010Z 07005KT 35/19 A3004 RMK A01 T03490189  RH  039%=      5-min Rain = 0
KCR1 142011Z 06004KT 35/19 A3004 RMK A01 T03470191  RH  040%=      5-min Rain = 0
KCR1 142012Z 10007KT 35/19 A3004 RMK A01 T03450194  RH  041%=      5-min Rain = 0
KCR1 142013Z 07010G18KT 35/20 A3004 RMK A01 T03460196  RH  041%=      5-min Rain = 0
KCR1 142014Z 06012KT 35/20 A3004 RMK A01 T03540195  RH  039%=      5-min Rain = 0
KCR1 142015Z 06013KT 36/19 A3004 RMK A01 T03590194  RH  038%=      5-min Rain = 0
KCR1 142016Z 07013KT 36/19 A3004 RMK A01 T03590192  RH  038%=      5-min Rain = 0
KCR1 142017Z 06011KT 35/19 A3004 RMK A01 T03540193  RH  039%=      5-min Rain = 0
KCR1 142018Z 06009KT 35/19 A3004 RMK A01 T03530193  RH  039%=      5-min Rain = 0
KCR1 142019Z 07011KT 35/19 A3004 RMK A01 T03520192  RH  039%=      5-min Rain = 0
KCR1 142020Z 05009G14KT 35/19 A3004 RMK A01 T03520193  RH  039%=      5-min Rain = 0
KCR1 142021Z 05003KT 35/19 A3004 RMK A01 T03480194  RH  041%=      5-min Rain = 0
KCR1 142022Z 06002KT 35/20 A3003 RMK A01 T03470195  RH  041%=      5-min Rain = 0
KCR1 142023Z 06005KT 35/19 A3003 RMK A01 T03460194  RH  041%=      5-min Rain = 0
KCR1 142024Z 09008KT 35/20 A3003 RMK A01 T03450196  RH  041%=      5-min Rain = 0
KCR1 142025Z 09011KT 35/20 A3003 RMK A01 T03480196  RH  041%=      5-min Rain = 0
KCR1 142026Z 08010KT 35/20 A3003 RMK A01 T03480195  RH  041%=      5-min Rain = 0
KCR1 142027Z 07008KT 35/20 A3003 RMK A01 T03490195  RH  041%=      5-min Rain = 0
KCR1 142028Z 08011KT 35/20 A3003 RMK A01 T03520195  RH  040%=      5-min Rain = 0
KCR1 142029Z 10010KT 35/20 A3003 RMK A01 T03530195  RH  040%=      5-min Rain = 0
KCR1 142030Z 08007KT 35/20 A3003 RMK A01 T03540195  RH  039%=      5-min Rain = 0
KCR1 142031Z 09007KT 35/19 A3003 RMK A01 T03540194  RH  039%=      5-min Rain = 0
KCR1 142032Z 08008KT 35/20 A3003 RMK A01 T03530195  RH  040%=      5-min Rain = 0
KCR1 142033Z 06011KT 36/19 A3003 RMK A01 T03550193  RH  039%=      5-min Rain = 0
KCR1 142034Z 06015KT 36/19 A3002 RMK A01 T03580193  RH  038%=      5-min Rain = 0
KCR1 142035Z 04014KT 36/19 A3003 RMK A01 T03590194  RH  038%=      5-min Rain = 0
KCR1 142036Z 04009KT 36/19 A3003 RMK A01 T03590193  RH  038%=      5-min Rain = 0
KCR1 142037Z 03006KT 36/19 A3002 RMK A01 T03560193  RH  038%=      5-min Rain = 0
KCR1 142038Z 08008KT 35/19 A3002 RMK A01 T03530192  RH  039%=      5-min Rain = 0
KCR1 142039Z 07010KT 35/19 A3002 RMK A01 T03540190  RH  038%=      5-min Rain = 0
KCR1 142040Z 07008KT 35/19 A3002 RMK A01 T03530189  RH  038%=      5-min Rain = 0
KCR1 142041Z 10006KT 35/19 A3002 RMK A01 T03510189  RH  038%=      5-min Rain = 0
KCR1 142042Z 07008G14KT 35/19 A3002 RMK A01 T03480190  RH  039%=      5-min Rain = 0
KCR1 142043Z 05008KT 35/20 A3002 RMK A01 T03540195  RH  039%=      5-min Rain = 0
KCR1 142044Z 06010KT 36/19 A3002 RMK A01 T03590193  RH  038%=      5-min Rain = 0
KCR1 142045Z 06010KT 36/19 A3002 RMK A01 T03590193  RH  038%=      5-min Rain = 0
KCR1 142046Z 06010KT 36/19 A3002 RMK A01 T03610193  RH  037%=      5-min Rain = 0
KCR1 142047Z 06012KT 36/19 A3002 RMK A01 T03610193  RH  037%=      5-min Rain = 0
KCR1 142048Z 06011KT 36/19 A3002 RMK A01 T03590191  RH  037%=      5-min Rain = 0
KCR1 142049Z 07008KT 36/19 A3002 RMK A01 T03560189  RH  038%=      5-min Rain = 0
KCR1 142050Z 05008KT 36/19 A3001 RMK A01 T03550189  RH  038%=      5-min Rain = 0
KCR1 142051Z 06008KT 36/19 A3001 RMK A01 T03560188  RH  037%=      5-min Rain = 0
KCR1 142052Z 07013KT 36/19 A3001 RMK A01 T03570189  RH  037%=      5-min Rain = 0
KCR1 142053Z 07011KT 36/19 A3001 RMK A01 T03580187  RH  037%=      5-min Rain = 0
KCR1 142054Z 08010KT 35/19 A3001 RMK A01 T03530186  RH  038%=      5-min Rain = 0
KCR1 142055Z 10010KT 35/19 A3001 RMK A01 T03500187  RH  038%=      5-min Rain = 0
KCR1 142056Z 08012KT 35/19 A3001 RMK A01 T03500186  RH  038%=      5-min Rain = 0
KCR1 142057Z 07010KT 36/19 A3001 RMK A01 T03550185  RH  037%=      5-min Rain = 0
KCR1 142058Z 07010G17KT 36/19 A3001 RMK A01 T03570185  RH  036%=      5-min Rain = 0
KCR1 142059Z 05012KT 36/19 A3001 RMK A01 T03550185  RH  037%=      5-min Rain = 0
KCR1 142100Z 05007KT 35/19 A3001 RMK A01 T03530186  RH  037%=      5-min Rain = 0
KCR1 142101Z 07010KT 35/19 A3001 RMK A01 T03540187  RH  038%=      5-min Rain = 0
KCR1 142102Z 05006KT 36/19 A3001 RMK A01 T03550187  RH  037%=      5-min Rain = 0
KCR1 142103Z 07005KT 35/19 A3001 RMK A01 T03530190  RH  038%=      5-min Rain = 0
KCR1 142104Z 11007KT 35/19 A3001 RMK A01 T03530191  RH  039%=      5-min Rain = 0
KCR1 142105Z 11008KT 35/19 A3001 RMK A01 T03540192  RH  039%=      5-min Rain = 0
KCR1 142106Z 12007KT 35/19 A3001 RMK A01 T03530192  RH  039%=      5-min Rain = 0
KCR1 142107Z 11004KT 35/19 A30 RMK A01 T03500192  RH  039%=      5-min Rain = 0
KCR1 142108Z 09008KT 35/19 A30 RMK A01 T03490192  RH  040%=      5-min Rain = 0
KCR1 142109Z 09012KT 35/19 A30 RMK A01 T03510191  RH  039%=      5-min Rain = 0
KCR1 142110Z 07011KT 36/19 A30 RMK A01 T03560192  RH  038%=      5-min Rain = 0
KCR1 142111Z 06014KT 36/19 A30 RMK A01 T03600190  RH  037%=      5-min Rain = 0
KCR1 142112Z 06013KT 36/19 A30 RMK A01 T03590190  RH  037%=      5-min Rain = 0
KCR1 142113Z 06011KT 36/19 A30 RMK A01 T03560191  RH  038%=      5-min Rain = 0
KCR1 142114Z 05010KT 36/19 A30 RMK A01 T03560191  RH  038%=      5-min Rain = 0
KCR1 142115Z 05012KT 36/19 A30 RMK A01 T03570193  RH  038%=      5-min Rain = 0
KCR1 142116Z 05009KT 36/19 A30 RMK A01 T03570193  RH  038%=      5-min Rain = 0
KCR1 142117Z 05007KT 35/19 A30 RMK A01 T03530192  RH  039%=      5-min Rain = 0
KCR1 142118Z 06011KT 35/19 A30 RMK A01 T03510192  RH  039%=      5-min Rain = 0
KCR1 142119Z 06010KT 35/19 A30 RMK A01 T03510189  RH  038%=      5-min Rain = 0
KCR1 142120Z 06010KT 35/19 A30 RMK A01 T03540190  RH  038%=      5-min Rain = 0
KCR1 142121Z 06011KT 36/19 A30 RMK A01 T03610192  RH  037%=      5-min Rain = 0
KCR1 142122Z 05008KT 36/19 A30 RMK A01 T03630191  RH  037%=      5-min Rain = 0
KCR1 142123Z 05012KT 36/19 A30 RMK A01 T03610193  RH  038%=      5-min Rain = 0
KCR1 142124Z 05008KT 36/19 A30 RMK A01 T03590194  RH  038%=      5-min Rain = 0
KCR1 142125Z 07010KT 36/19 A30 RMK A01 T03590193  RH  038%=      5-min Rain = 0
KCR1 142126Z 07008KT 36/19 A30 RMK A01 T03570190  RH  037%=      5-min Rain = 0
KCR1 142127Z 07007KT 36/19 A30 RMK A01 T03560189  RH  038%=      5-min Rain = 0
KCR1 142128Z 04007KT 36/19 A30 RMK A01 T03550189  RH  038%=      5-min Rain = 0
KCR1 142129Z 05008KT 36/19 A30 RMK A01 T03550190  RH  038%=      5-min Rain = 0
KCR1 142130Z 07010KT 36/19 A30 RMK A01 T03560188  RH  037%=      5-min Rain = 0
KCR1 142131Z 08012KT 36/19 A30 RMK A01 T03580190  RH  037%=      5-min Rain = 0
KCR1 142132Z 09008KT 36/19 A30 RMK A01 T03600188  RH  036%=      5-min Rain = 0
KCR1 142133Z 08013KT 36/19 A30 RMK A01 T03590189  RH  037%=      5-min Rain = 0
KCR1 142134Z 05012KT 36/19 A30 RMK A01 T03580187  RH  037%=      5-min Rain = 0
KCR1 142135Z 05008KT 36/19 A30 RMK A01 T03560187  RH  037%=      5-min Rain = 0
KCR1 142136Z 08012KT 36/19 A30 RMK A01 T03550187  RH  037%=      5-min Rain = 0
KCR1 142137Z 08011KT 36/19 A30 RMK A01 T03580188  RH  037%=      5-min Rain = 0
KCR1 142138Z 07008G13KT 36/19 A30 RMK A01 T03600186  RH  036%=      5-min Rain = 0
KCR1 142139Z 09009KT 36/19 A30 RMK A01 T03560186  RH  037%=      5-min Rain = 0
KCR1 142140Z 10010KT 36/19 A30 RMK A01 T03550185  RH  037%=      5-min Rain = 0
KCR1 142141Z 11008KT 36/18 A30 RMK A01 T03550183  RH  036%=      5-min Rain = 0
KCR1 142142Z 12005KT 35/19 A30 RMK A01 T03510185  RH  037%=      5-min Rain = 0
KCR1 142143Z 09012G19KT 35/18 A2999 RMK A01 T03510184  RH  037%=      5-min Rain = 0
KCR1 142144Z 05012G17KT 35/18 A30 RMK A01 T03520180  RH  036%=      5-min Rain = 0
KCR1 142145Z 06012KT 36/18 A30 RMK A01 T03550182  RH  036%=      5-min Rain = 0
KCR1 142146Z 05010KT 36/18 A30 RMK A01 T03570179  RH  035%=      5-min Rain = 0
KCR1 142147Z 06011KT 36/18 A30 RMK A01 T03550178  RH  035%=      5-min Rain = 0
KCR1 142148Z 08013KT 36/18 A30 RMK A01 T03550179  RH  035%=      5-min Rain = 0
KCR1 142149Z 06013KT 36/18 A30 RMK A01 T03570178  RH  035%=      5-min Rain = 0
KCR1 142150Z 07010KT 36/18 A30 RMK A01 T03570176  RH  034%=      5-min Rain = 0
KCR1 142151Z 07013KT 36/18 A30 RMK A01 T03570178  RH  035%=      5-min Rain = 0
KCR1 142152Z 08010KT 36/18 A30 RMK A01 T03560179  RH  035%=      5-min Rain = 0
KCR1 142153Z 08007KT 35/18 A30 RMK A01 T03530177  RH  035%=      5-min Rain = 0
KCR1 142154Z 07009KT 35/18 A30 RMK A01 T03520183  RH  037%=      5-min Rain = 0
KCR1 142155Z 06009KT 35/18 A30 RMK A01 T03520184  RH  037%=      5-min Rain = 0
KCR1 142156Z 07008KT 36/19 A30 RMK A01 T03550185  RH  037%=      5-min Rain = 0
KCR1 142157Z 06009KT 35/19 A30 RMK A01 T03540185  RH  037%=      5-min Rain = 0
KCR1 142158Z 05009KT 35/19 A30 RMK A01 T03540185  RH  037%=      5-min Rain = 0
KCR1 142159Z 07008G15KT 35/19 A2999 RMK A01 T03530186  RH  037%=      5-min Rain = 0
KCR1 142200Z 07012KT 35/19 A2999 RMK A01 T03520188  RH  038%=      5-min Rain = 0
KCR1 142201Z 07009G14KT 35/19 A30 RMK A01 T03520186  RH  038%=      5-min Rain = 0
KCR1 142202Z 07012KT 35/19 A30 RMK A01 T03510186  RH  038%=      5-min Rain = 0
KCR1 142203Z 07011KT 35/19 A30 RMK A01 T03520186  RH  038%=      5-min Rain = 0
KCR1 142204Z 07012KT 35/19 A30 RMK A01 T03540186  RH  037%=      5-min Rain = 0
KCR1 142205Z 06010KT 36/19 A30 RMK A01 T03570186  RH  037%=      5-min Rain = 0
KCR1 142206Z 06008KT 36/19 A30 RMK A01 T03580187  RH  037%=      5-min Rain = 0
KCR1 142207Z 07009KT 36/19 A30 RMK A01 T03570188  RH  037%=      5-min Rain = 0
KCR1 142208Z 07007KT 36/19 A30 RMK A01 T03550189  RH  038%=      5-min Rain = 0
KCR1 142209Z 03005KT 35/19 A2999 RMK A01 T03530188  RH  038%=      5-min Rain = 0
KCR1 142210Z 06006KT 35/19 A2999 RMK A01 T03530188  RH  038%=      5-min Rain = 0
KCR1 142211Z 06009KT 36/19 A2999 RMK A01 T03550187  RH  037%=      5-min Rain = 0
KCR1 142212Z 07005KT 36/19 A2999 RMK A01 T03550187  RH  037%=      5-min Rain = 0
KCR1 142213Z 07008G13KT 36/19 A2999 RMK A01 T03550188  RH  037%=      5-min Rain = 0
KCR1 142214Z 08009KT 36/19 A2999 RMK A01 T03580189  RH  037%=      5-min Rain = 0
KCR1 142215Z 08011KT 36/19 A2999 RMK A01 T03600190  RH  037%=      5-min Rain = 0
KCR1 142216Z 10009KT 36/19 A2999 RMK A01 T03600189  RH  037%=      5-min Rain = 0
KCR1 142217Z 10012KT 36/19 A2999 RMK A01 T03590188  RH  037%=      5-min Rain = 0
KCR1 142218Z 10012KT 36/19 A2999 RMK A01 T03580187  RH  037%=      5-min Rain = 0
KCR1 142219Z 09011KT 36/19 A2999 RMK A01 T03570190  RH  037%=      5-min Rain = 0
KCR1 142220Z 09009KT 36/19 A2999 RMK A01 T03560188  RH  037%=      5-min Rain = 0
KCR1 142221Z 11008KT 36/19 A2999 RMK A01 T03550188  RH  038%=      5-min Rain = 0
KCR1 142222Z 11008KT 36/19 A2999 RMK A01 T03550187  RH  037%=      5-min Rain = 0
KCR1 142223Z 11005KT 36/19 A2999 RMK A01 T03560188  RH  037%=      5-min Rain = 0
KCR1 142224Z 10006KT 36/19 A2999 RMK A01 T03560187  RH  037%=      5-min Rain = 0
KCR1 142225Z 08010KT 36/19 A2999 RMK A01 T03550188  RH  038%=      5-min Rain = 0
KCR1 142226Z 07008KT 35/19 A2999 RMK A01 T03530188  RH  038%=      5-min Rain = 0
KCR1 142227Z 08004KT 35/19 A2999 RMK A01 T03520187  RH  038%=      5-min Rain = 0
KCR1 142228Z 08009KT 35/19 A2999 RMK A01 T03520188  RH  038%=      5-min Rain = 0
KCR1 142229Z 08011KT 35/19 A2999 RMK A01 T03530187  RH  038%=      5-min Rain = 0
KCR1 142230Z 09008KT 35/19 A2999 RMK A01 T03540186  RH  037%=      5-min Rain = 0
KCR1 142231Z 07006KT 35/19 A2999 RMK A01 T03540187  RH  037%=      5-min Rain = 0
KCR1 142232Z 06006KT 35/19 A2999 RMK A01 T03540187  RH  038%=      5-min Rain = 0
KCR1 142233Z 05009KT 36/19 A2999 RMK A01 T03550189  RH  038%=      5-min Rain = 0
KCR1 142234Z 03006KT 36/19 A2999 RMK A01 T03570188  RH  037%=      5-min Rain = 0
KCR1 142235Z 05005KT 35/19 A2999 RMK A01 T03540188  RH  038%=      5-min Rain = 0
KCR1 142236Z 06007KT 35/19 A2999 RMK A01 T03530188  RH  038%=      5-min Rain = 0
KCR1 142237Z 07012KT 35/19 A2999 RMK A01 T03530186  RH  037%=      5-min Rain = 0
KCR1 142238Z 07011KT 36/18 A2999 RMK A01 T03570184  RH  036%=      5-min Rain = 0
KCR1 142239Z 07010KT 36/18 A2999 RMK A01 T03590182  RH  035%=      5-min Rain = 0
KCR1 142240Z 06009KT 36/18 A2999 RMK A01 T03570180  RH  035%=      5-min Rain = 0
KCR1 142241Z 06010KT 36/18 A2999 RMK A01 T03560181  RH  036%=      5-min Rain = 0
KCR1 142242Z 07008KT 36/18 A2999 RMK A01 T03570184  RH  036%=      5-min Rain = 0
KCR1 142243Z 07009KT 36/19 A2999 RMK A01 T03570187  RH  037%=      5-min Rain = 0
KCR1 142244Z 07010KT 36/19 A2999 RMK A01 T03600186  RH  036%=      5-min Rain = 0
KCR1 142245Z 09007KT 36/19 A2999 RMK A01 T03590185  RH  036%=      5-min Rain = 0
KCR1 142246Z 08004KT 36/19 A2999 RMK A01 T03560185  RH  037%=      5-min Rain = 0
KCR1 142247Z 07007KT 36/19 A2999 RMK A01 T03580186  RH  036%=      5-min Rain = 0
KCR1 142248Z 06007KT 36/19 A2999 RMK A01 T03570185  RH  036%=      5-min Rain = 0
KCR1 142249Z 05005KT 36/19 A2999 RMK A01 T03560186  RH  037%=      5-min Rain = 0
KCR1 142250Z 05003KT 36/19 A2999 RMK A01 T03560185  RH  037%=      5-min Rain = 0
KCR1 142251Z 03003KT 36/19 A2999 RMK A01 T03570186  RH  037%=      5-min Rain = 0
KCR1 142252Z 02003KT 36/19 A2999 RMK A01 T03580186  RH  036%=      5-min Rain = 0
KCR1 142253Z 04003KT 36/19 A2999 RMK A01 T03580188  RH  037%=      5-min Rain = 0
KCR1 142254Z 07007KT 36/19 A2999 RMK A01 T03580187  RH  037%=      5-min Rain = 0
KCR1 142255Z 09010KT 36/19 A2999 RMK A01 T03590188  RH  037%=      5-min Rain = 0
KCR1 142256Z 08011KT 36/19 A2999 RMK A01 T03600188  RH  036%=      5-min Rain = 0
KCR1 142257Z 08009KT 36/19 A2999 RMK A01 T03560186  RH  037%=      5-min Rain = 0
KCR1 142258Z 08007KT 36/19 A2999 RMK A01 T03550188  RH  038%=      5-min Rain = 0
KCR1 142259Z 08007KT 35/19 A2999 RMK A01 T03540188  RH  038%=      5-min Rain = 0
KCR1 142300Z 09006KT 36/19 A2999 RMK A01 T03550189  RH  038%=      5-min Rain = 0
KCR1 142301Z 08004KT 36/19 A2999 RMK A01 T03560189  RH  038%=      5-min Rain = 0
KCR1 142302Z 06004KT 36/19 A2999 RMK A01 T03570188  RH  037%=      5-min Rain = 0
KCR1 142303Z 05003KT 36/19 A2999 RMK A01 T03560189  RH  038%=      5-min Rain = 0
KCR1 142304Z 05004KT 35/19 A2999 RMK A01 T03540189  RH  038%=      5-min Rain = 0
KCR1 142305Z 06004KT 35/19 A2999 RMK A01 T03540190  RH  038%=      5-min Rain = 0
KCR1 142306Z 05006KT 36/19 A2999 RMK A01 T03550189  RH  038%=      5-min Rain = 0
KCR1 142307Z 05007KT 36/19 A2999 RMK A01 T03560189  RH  038%=      5-min Rain = 0
KCR1 142308Z 06005KT 36/19 A2999 RMK A01 T03550187  RH  037%=      5-min Rain = 0
KCR1 142309Z 06007KT 36/19 A2999 RMK A01 T03550189  RH  038%=      5-min Rain = 0
KCR1 142310Z 08008KT 36/19 A2999 RMK A01 T03560187  RH  037%=      5-min Rain = 0
KCR1 142311Z 09008KT 36/19 A2999 RMK A01 T03550186  RH  037%=      5-min Rain = 0
KCR1 142312Z 06007KT 36/19 A2999 RMK A01 T03550189  RH  038%=      5-min Rain = 0
KCR1 142313Z 08008KT 36/19 A2999 RMK A01 T03570189  RH  037%=      5-min Rain = 0
KCR1 142314Z 10009KT 36/19 A2999 RMK A01 T03570188  RH  037%=      5-min Rain = 0
KCR1 142315Z 10007KT 36/19 A2999 RMK A01 T03560188  RH  037%=      5-min Rain = 0
KCR1 142316Z 10002KT 36/19 A2999 RMK A01 T03550188  RH  038%=      5-min Rain = 0
KCR1 142317Z 09001KT 35/19 A2999 RMK A01 T03540188  RH  038%=      5-min Rain = 0
KCR1 142318Z 07003KT 36/19 A2999 RMK A01 T03550189  RH  038%=      5-min Rain = 0
KCR1 142319Z 08004KT 36/19 A2999 RMK A01 T03560188  RH  037%=      5-min Rain = 0
KCR1 142320Z 09003KT 36/19 A2999 RMK A01 T03560189  RH  038%=      5-min Rain = 0
KCR1 142321Z 13004KT 36/19 A2999 RMK A01 T03550187  RH  037%=      5-min Rain = 0
KCR1 142322Z 13005KT 36/18 A2999 RMK A01 T03550183  RH  036%=      5-min Rain = 0
KCR1 142323Z 11007KT 35/19 A2999 RMK A01 T03540186  RH  037%=      5-min Rain = 0
KCR1 142324Z 11008KT 36/19 A2999 RMK A01 T03550188  RH  037%=      5-min Rain = 0
KCR1 142325Z 13008KT 36/19 A2999 RMK A01 T03550188  RH  037%=      5-min Rain = 0
KCR1 142326Z 11006KT 36/19 A2999 RMK A01 T03550188  RH  037%=      5-min Rain = 0
KCR1 142327Z 10006KT 35/19 A2999 RMK A01 T03540188  RH  038%=      5-min Rain = 0
KCR1 142328Z 10007KT 36/19 A2999 RMK A01 T03550189  RH  038%=      5-min Rain = 0
KCR1 142329Z 09007G12KT 36/19 A2999 RMK A01 T03550189  RH  038%=      5-min Rain = 0
KCR1 142330Z 08011KT 35/19 A2999 RMK A01 T03540190  RH  038%=      5-min Rain = 0
KCR1 142331Z 08010KT 35/19 A2999 RMK A01 T03540189  RH  038%=      5-min Rain = 0
KCR1 142332Z 07009KT 35/19 A2999 RMK A01 T03540187  RH  038%=      5-min Rain = 0
KCR1 142333Z 07008KT 35/19 A2999 RMK A01 T03530188  RH  038%=      5-min Rain = 0
KCR1 142334Z 07010KT 35/19 A2999 RMK A01 T03540187  RH  037%=      5-min Rain = 0
KCR1 142335Z 09008KT 36/19 A2999 RMK A01 T03550186  RH  037%=      5-min Rain = 0
KCR1 142336Z 08007KT 36/19 A2999 RMK A01 T03560186  RH  037%=      5-min Rain = 0
KCR1 142337Z 08005KT 36/19 A2999 RMK A01 T03550187  RH  037%=      5-min Rain = 0
KCR1 142338Z 09006KT 36/19 A2999 RMK A01 T03550189  RH  038%=      5-min Rain = 0
KCR1 142339Z 07006KT 36/19 A2999 RMK A01 T03550191  RH  038%=      5-min Rain = 0
KCR1 142340Z 05008KT 35/19 A2999 RMK A01 T03540191  RH  039%=      5-min Rain = 0
KCR1 142341Z 04009KT 35/19 A2999 RMK A01 T03530192  RH  039%=      5-min Rain = 0
KCR1 142342Z 06009KT 35/19 A2999 RMK A01 T03540191  RH  039%=      5-min Rain = 0
KCR1 142343Z 06007KT 35/19 A2999 RMK A01 T03530192  RH  039%=      5-min Rain = 0
KCR1 142344Z 05008KT 35/19 A2999 RMK A01 T03530193  RH  039%=      5-min Rain = 0
KCR1 142345Z 06010KT 35/19 A2999 RMK A01 T03530191  RH  039%=      5-min Rain = 0
KCR1 142346Z 04008KT 35/19 A2999 RMK A01 T03530190  RH  038%=      5-min Rain = 0
KCR1 142347Z 05010KT 35/19 A2999 RMK A01 T03530190  RH  038%=      5-min Rain = 0
KCR1 142348Z 06013KT 35/19 A2999 RMK A01 T03530188  RH  038%=      5-min Rain = 0
KCR1 142349Z 06009KT 35/19 A2999 RMK A01 T03510186  RH  038%=      5-min Rain = 0
KCR1 142350Z 06008KT 35/19 A2999 RMK A01 T03510186  RH  038%=      5-min Rain = 0
KCR1 142351Z 05008KT 35/19 A2999 RMK A01 T03510185  RH  038%=      5-min Rain = 0
KCR1 142352Z 07010KT 35/18 A2999 RMK A01 T03530182  RH  037%=      5-min Rain = 0
KCR1 142353Z 08007KT 35/18 A2999 RMK A01 T03530183  RH  037%=      5-min Rain = 0
KCR1 142354Z 05007KT 35/18 A2999 RMK A01 T03520182  RH  037%=      5-min Rain = 0
KCR1 142355Z 05006KT 35/18 A2999 RMK A01 T03510182  RH  037%=      5-min Rain = 0
KCR1 142356Z 05007KT 35/18 A2999 RMK A01 T03510184  RH  037%=      5-min Rain = 0
KCR1 142357Z 08005KT 35/18 A2999 RMK A01 T03500184  RH  037%=      5-min Rain = 0
KCR1 142358Z 08004KT 35/18 A2999 RMK A01 T03510184  RH  037%=      5-min Rain = 0
KCR1 142359Z 08005KT 35/18 A2999 RMK A01 T03520184  RH  037%=      5-min Rain = 0
KCR1 150000Z 10007G12KT 35/19 A2999 RMK A01 T03520185  RH  037%=      5-min Rain = 0
KCR1 150001Z 08010KT 35/19 A2999 RMK A01 T03520186  RH  038%=      5-min Rain = 0
KCR1 150002Z 07010KT 35/19 A2999 RMK A01 T03530186  RH  037%=      5-min Rain = 0
KCR1 150003Z 06008KT 35/19 A2999 RMK A01 T03520186  RH  038%=      5-min Rain = 0
KCR1 150004Z 07008KT 35/19 A2999 RMK A01 T03510186  RH  038%=      5-min Rain = 0
KCR1 150005Z 08007KT 35/19 A2999 RMK A01 T03520186  RH  038%=      5-min Rain = 0
KCR1 150006Z 08007KT 35/19 A2999 RMK A01 T03520186  RH  038%=      5-min Rain = 0
KCR1 150007Z 07006KT 35/19 A2999 RMK A01 T03520185  RH  037%=      5-min Rain = 0
KCR1 150008Z 07006KT 35/19 A2999 RMK A01 T03510185  RH  038%=      5-min Rain = 0
KCR1 150009Z 07004KT 35/19 A2999 RMK A01 T03500185  RH  038%=      5-min Rain = 0
KCR1 150010Z 08003KT 35/19 A2999 RMK A01 T03490186  RH  038%=      5-min Rain = 0
KCR1 150011Z 06004G9KT 35/19 A2999 RMK A01 T03500187  RH  038%=      5-min Rain = 0
KCR1 150012Z 08008KT 35/19 A2999 RMK A01 T03510186  RH  038%=      5-min Rain = 0
KCR1 150013Z 06008KT 35/19 A2999 RMK A01 T03510185  RH  038%=      5-min Rain = 0
KCR1 150014Z 08008KT 35/19 A2999 RMK A01 T03500185  RH  038%=      5-min Rain = 0
KCR1 150015Z 09010KT 35/19 A2999 RMK A01 T03500185  RH  038%=      5-min Rain = 0
KCR1 150016Z 09012KT 35/19 A2999 RMK A01 T03500185  RH  038%=      5-min Rain = 0
KCR1 150017Z 09011KT 35/18 A2999 RMK A01 T03500184  RH  038%=      5-min Rain = 0
KCR1 150018Z 09009KT 35/18 A2999 RMK A01 T03490184  RH  038%=      5-min Rain = 0
KCR1 150019Z 09009KT 35/18 A2999 RMK A01 T03480183  RH  038%=      5-min Rain = 0
KCR1 150020Z 10008KT 35/18 A2999 RMK A01 T03480183  RH  038%=      5-min Rain = 0
KCR1 150021Z 10008KT 35/18 A2999 RMK A01 T03480183  RH  038%=      5-min Rain = 0
KCR1 150022Z 08007KT 35/18 A2999 RMK A01 T03480183  RH  038%=      5-min Rain = 0
KCR1 150023Z 07007KT 35/18 A2999 RMK A01 T03480182  RH  038%=      5-min Rain = 0
KCR1 150024Z 08006KT 35/18 A2999 RMK A01 T03480183  RH  038%=      5-min Rain = 0
KCR1 150025Z 06006KT 35/18 A2999 RMK A01 T03480183  RH  038%=      5-min Rain = 0
KCR1 150026Z 08008KT 35/18 A2999 RMK A01 T03480183  RH  038%=      5-min Rain = 0
KCR1 150027Z 07009KT 35/18 A2999 RMK A01 T03480182  RH  038%=      5-min Rain = 0
KCR1 150028Z 07007KT 35/18 A2999 RMK A01 T03480182  RH  038%=      5-min Rain = 0
KCR1 150029Z 06009KT 35/18 A2999 RMK A01 T03470182  RH  038%=      5-min Rain = 0
KCR1 150030Z 05009KT 35/18 A2999 RMK A01 T03470181  RH  037%=      5-min Rain = 0
KCR1 150031Z 04010KT 35/18 A2999 RMK A01 T03470181  RH  037%=      5-min Rain = 0
KCR1 150032Z 04007KT 35/18 A2999 RMK A01 T03480182  RH  038%=      5-min Rain = 0
KCR1 150033Z 05008KT 35/18 A2999 RMK A01 T03480182  RH  038%=      5-min Rain = 0
KCR1 150034Z 06009KT 35/18 A2999 RMK A01 T03480182  RH  038%=      5-min Rain = 0
KCR1 150035Z 07008KT 35/18 A2999 RMK A01 T03480183  RH  038%=      5-min Rain = 0
KCR1 150036Z 08009KT 35/19 A2999 RMK A01 T03470185  RH  038%=      5-min Rain = 0
KCR1 150037Z 09008KT 35/19 A2999 RMK A01 T03460186  RH  039%=      5-min Rain = 0
KCR1 150038Z 10008KT 35/19 A2999 RMK A01 T03450186  RH  039%=      5-min Rain = 0
KCR1 150039Z 08007KT 34/19 A2999 RMK A01 T03430185  RH  039%=      5-min Rain = 0
KCR1 150040Z 06007KT 34/19 A2999 RMK A01 T03430185  RH  039%=      5-min Rain = 0
KCR1 150041Z 06007KT 34/18 A2999 RMK A01 T03440184  RH  039%=      5-min Rain = 0
KCR1 150042Z 07009KT 34/19 A2999 RMK A01 T03440185  RH  039%=      5-min Rain = 0
KCR1 150043Z 07007KT 34/19 A2999 RMK A01 T03440185  RH  039%=      5-min Rain = 0
KCR1 150044Z 06007KT 34/19 A2999 RMK A01 T03440185  RH  039%=      5-min Rain = 0
KCR1 150045Z 08006KT 34/19 A2999 RMK A01 T03440185  RH  039%=      5-min Rain = 0
KCR1 150046Z 07007KT 34/19 A2999 RMK A01 T03440186  RH  039%=      5-min Rain = 0
KCR1 150047Z 08009KT 34/19 A2999 RMK A01 T03440185  RH  039%=      5-min Rain = 0
KCR1 150048Z 07007KT 34/19 A2999 RMK A01 T03430185  RH  039%=      5-min Rain = 0
KCR1 150049Z 06010KT 34/19 A30 RMK A01 T03420185  RH  039%=      5-min Rain = 0
KCR1 150050Z 06009KT 34/19 A30 RMK A01 T03420185  RH  039%=      5-min Rain = 0
KCR1 150051Z 07008KT 34/19 A30 RMK A01 T03420185  RH  039%=      5-min Rain = 0
KCR1 150052Z 07008KT 34/19 A30 RMK A01 T03410185  RH  040%=      5-min Rain = 0
KCR1 150053Z 07009KT 34/19 A30 RMK A01 T03400185  RH  040%=      5-min Rain = 0
KCR1 150054Z 07008KT 34/18 A30 RMK A01 T03390184  RH  040%=      5-min Rain = 0
KCR1 150055Z 07008KT 34/18 A30 RMK A01 T03390184  RH  040%=      5-min Rain = 0
KCR1 150056Z 08009KT 34/18 A30 RMK A01 T03390184  RH  040%=      5-min Rain = 0
KCR1 150057Z 07010KT 34/18 A30 RMK A01 T03390183  RH  040%=      5-min Rain = 0
KCR1 150058Z 07008KT 34/18 A30 RMK A01 T03390183  RH  040%=      5-min Rain = 0
KCR1 150059Z 07007KT 34/18 A30 RMK A01 T03390183  RH  040%=      5-min Rain = 0
KCR1 150100Z 07008KT 34/18 A30 RMK A01 T03380183  RH  040%=      5-min Rain = 0
KCR1 150101Z 07006KT 34/18 A30 RMK A01 T03380182  RH  040%=      5-min Rain = 0
KCR1 150102Z 07009KT 34/18 A30 RMK A01 T03380182  RH  040%=      5-min Rain = 0
KCR1 150103Z 07009KT 34/18 A30 RMK A01 T03380182  RH  040%=      5-min Rain = 0
KCR1 150104Z 07009KT 34/18 A30 RMK A01 T03370181  RH  040%=      5-min Rain = 0
KCR1 150105Z 07010KT 34/18 A30 RMK A01 T03370181  RH  040%=      5-min Rain = 0
KCR1 150106Z 07007KT 34/18 A30 RMK A01 T03370182  RH  040%=      5-min Rain = 0
KCR1 150107Z 07008KT 34/18 A30 RMK A01 T03370181  RH  040%=      5-min Rain = 0
KCR1 150108Z 08009KT 34/18 A30 RMK A01 T03360181  RH  040%=      5-min Rain = 0
KCR1 150109Z 07007KT 34/18 A30 RMK A01 T03360181  RH  040%=      5-min Rain = 0
KCR1 150110Z 07009KT 34/18 A30 RMK A01 T03350181  RH  040%=      5-min Rain = 0
KCR1 150111Z 07007KT 34/18 A30 RMK A01 T03350180  RH  040%=      5-min Rain = 0
KCR1 150112Z 07007KT 34/18 A30 RMK A01 T03350180  RH  040%=      5-min Rain = 0
KCR1 150113Z 07007KT 33/18 A30 RMK A01 T03340180  RH  040%=      5-min Rain = 0
KCR1 150114Z 07007KT 33/18 A30 RMK A01 T03340180  RH  040%=      5-min Rain = 0
KCR1 150115Z 07008KT 33/18 A30 RMK A01 T03340179  RH  040%=      5-min Rain = 0
KCR1 150116Z 06007KT 33/18 A30 RMK A01 T03340180  RH  040%=      5-min Rain = 0
KCR1 150117Z 06008KT 33/18 A30 RMK A01 T03330180  RH  040%=      5-min Rain = 0
KCR1 150118Z 07008KT 33/18 A30 RMK A01 T03330179  RH  040%=      5-min Rain = 0
KCR1 150119Z 06007KT 33/18 A30 RMK A01 T03330179  RH  040%=      5-min Rain = 0
KCR1 150120Z 06008KT 33/18 A30 RMK A01 T03330179  RH  040%=      5-min Rain = 0
KCR1 150121Z 06008KT 33/18 A30 RMK A01 T03320178  RH  040%=      5-min Rain = 0
KCR1 150122Z 06008KT 33/18 A30 RMK A01 T03320179  RH  040%=      5-min Rain = 0
KCR1 150123Z 06008KT 33/18 A30 RMK A01 T03310178  RH  040%=      5-min Rain = 0
KCR1 150124Z 06007KT 33/18 A30 RMK A01 T03320178  RH  040%=      5-min Rain = 0
KCR1 150125Z 06008KT 33/18 A30 RMK A01 T03310178  RH  040%=      5-min Rain = 0
KCR1 150126Z 06008KT 33/18 A30 RMK A01 T03310179  RH  040%=      5-min Rain = 0
KCR1 150127Z 06007KT 33/18 A3001 RMK A01 T03310179  RH  040%=      5-min Rain = 0
KCR1 150128Z 07006KT 33/18 A3001 RMK A01 T03300179  RH  041%=      5-min Rain = 0
KCR1 150129Z 06007KT 33/18 A3001 RMK A01 T03290178  RH  041%=      5-min Rain = 0
KCR1 150130Z 07007KT 33/18 A3001 RMK A01 T03290178  RH  041%=      5-min Rain = 0
KCR1 150131Z 06007KT 33/18 A3001 RMK A01 T03290178  RH  041%=      5-min Rain = 0
KCR1 150132Z 06006KT 33/18 A3001 RMK A01 T03290179  RH  041%=      5-min Rain = 0
KCR1 150133Z 07006KT 33/18 A3001 RMK A01 T03280179  RH  041%=      5-min Rain = 0
KCR1 150134Z 07006KT 33/18 A3001 RMK A01 T03280179  RH  041%=      5-min Rain = 0
KCR1 150135Z 07006KT 33/18 A3001 RMK A01 T03270179  RH  041%=      5-min Rain = 0
KCR1 150136Z 07005KT 33/18 A3001 RMK A01 T03270179  RH  041%=      5-min Rain = 0
KCR1 150137Z 07005KT 33/18 A3001 RMK A01 T03270179  RH  041%=      5-min Rain = 0
KCR1 150138Z 07005KT 33/18 A3001 RMK A01 T03260179  RH  042%=      5-min Rain = 0
KCR1 150139Z 07005KT 33/18 A3001 RMK A01 T03250179  RH  042%=      5-min Rain = 0
KCR1 150140Z 07005KT 32/18 A3001 RMK A01 T03240178  RH  042%=      5-min Rain = 0
KCR1 150141Z 07005KT 32/18 A3001 RMK A01 T03240178  RH  042%=      5-min Rain = 0
KCR1 150142Z 07005KT 32/18 A3001 RMK A01 T03230179  RH  042%=      5-min Rain = 0
KCR1 150143Z 08005KT 32/18 A3001 RMK A01 T03230178  RH  042%=      5-min Rain = 0
KCR1 150144Z 07005KT 32/18 A3001 RMK A01 T03230179  RH  042%=      5-min Rain = 0
KCR1 150145Z 08006KT 32/18 A3001 RMK A01 T03220179  RH  043%=      5-min Rain = 0
KCR1 150146Z 08005KT 32/18 A3002 RMK A01 T03210179  RH  043%=      5-min Rain = 0
KCR1 150147Z 07006KT 32/18 A3002 RMK A01 T03200179  RH  043%=      5-min Rain = 0
KCR1 150148Z 08006KT 32/18 A3002 RMK A01 T03200179  RH  043%=      5-min Rain = 0
KCR1 150149Z 08006KT 32/18 A3002 RMK A01 T03190179  RH  043%=      5-min Rain = 0
KCR1 150150Z 08006KT 32/18 A3002 RMK A01 T03190179  RH  043%=      5-min Rain = 0
KCR1 150151Z 08006KT 32/18 A3002 RMK A01 T03190180  RH  043%=      5-min Rain = 0
KCR1 150152Z 09006KT 32/18 A3002 RMK A01 T03190179  RH  043%=      5-min Rain = 0
KCR1 150153Z 09006KT 32/18 A3002 RMK A01 T03180179  RH  044%=      5-min Rain = 0
KCR1 150154Z 09006KT 32/18 A3002 RMK A01 T03180180  RH  044%=      5-min Rain = 0
KCR1 150155Z 10005KT 32/18 A3002 RMK A01 T03180180  RH  044%=      5-min Rain = 0
KCR1 150156Z 11004KT 32/18 A3002 RMK A01 T03170180  RH  044%=      5-min Rain = 0
KCR1 150157Z 10006KT 32/18 A3002 RMK A01 T03170180  RH  044%=      5-min Rain = 0
KCR1 150158Z 10006KT 32/18 A3002 RMK A01 T03170180  RH  044%=      5-min Rain = 0
KCR1 150159Z 10005KT 32/18 A3002 RMK A01 T03160179  RH  044%=      5-min Rain = 0
KCR1 150200Z 11005KT 32/18 A3002 RMK A01 T03160180  RH  044%=      5-min Rain = 0
KCR1 150201Z 10005KT 32/18 A3002 RMK A01 T03160180  RH  044%=      5-min Rain = 0
KCR1 150202Z 10005KT 32/18 A3002 RMK A01 T03160180  RH  044%=      5-min Rain = 0
KCR1 150203Z 11005KT 32/18 A3002 RMK A01 T03150180  RH  045%=      5-min Rain = 0
KCR1 150204Z 10005KT 32/18 A3003 RMK A01 T03150180  RH  045%=      5-min Rain = 0
KCR1 150205Z 11005KT 32/18 A3003 RMK A01 T03150181  RH  045%=      5-min Rain = 0
KCR1 150206Z 11005KT 32/18 A3003 RMK A01 T03150182  RH  045%=      5-min Rain = 0
KCR1 150207Z 11006KT 31/18 A3003 RMK A01 T03140183  RH  045%=      5-min Rain = 0
KCR1 150208Z 11006KT 32/18 A3003 RMK A01 T03150184  RH  046%=      5-min Rain = 0
KCR1 150209Z 11006KT 31/18 A3003 RMK A01 T03140184  RH  046%=      5-min Rain = 0
KCR1 150210Z 11005KT 31/18 A3003 RMK A01 T03140184  RH  046%=      5-min Rain = 0
KCR1 150211Z 11006KT 31/19 A3003 RMK A01 T03140185  RH  046%=      5-min Rain = 0
KCR1 150212Z 11005KT 31/19 A3003 RMK A01 T03140185  RH  046%=      5-min Rain = 0
KCR1 150213Z 11005KT 31/19 A3003 RMK A01 T03130185  RH  046%=      5-min Rain = 0
KCR1 150214Z 11005KT 31/19 A3003 RMK A01 T03130185  RH  047%=      5-min Rain = 0
KCR1 150215Z 11005KT 31/19 A3003 RMK A01 T03130185  RH  047%=      5-min Rain = 0
KCR1 150216Z 12005KT 31/19 A3003 RMK A01 T03120185  RH  047%=      5-min Rain = 0
KCR1 150217Z 12005KT 31/19 A3003 RMK A01 T03110185  RH  047%=      5-min Rain = 0
KCR1 150218Z 12005KT 31/19 A3004 RMK A01 T03110186  RH  047%=      5-min Rain = 0
KCR1 150219Z 12005KT 31/19 A3004 RMK A01 T03100185  RH  047%=      5-min Rain = 0
KCR1 150220Z 12005KT 31/19 A3004 RMK A01 T03100185  RH  048%=      5-min Rain = 0
KCR1 150221Z 11005KT 31/19 A3004 RMK A01 T03100186  RH  048%=      5-min Rain = 0
KCR1 150222Z 11005KT 31/19 A3004 RMK A01 T03090186  RH  048%=      5-min Rain = 0
KCR1 150223Z 11005KT 31/19 A3004 RMK A01 T03090186  RH  048%=      5-min Rain = 0
KCR1 150224Z 11005KT 31/19 A3004 RMK A01 T03090186  RH  048%=      5-min Rain = 0
KCR1 150225Z 12005KT 31/19 A3004 RMK A01 T03080186  RH  048%=      5-min Rain = 0
KCR1 150226Z 12004KT 31/19 A3004 RMK A01 T03080186  RH  048%=      5-min Rain = 0
KCR1 150227Z 12005KT 31/19 A3004 RMK A01 T03070186  RH  048%=      5-min Rain = 0
KCR1 150228Z 12005KT 31/19 A3004 RMK A01 T03070186  RH  049%=      5-min Rain = 0
KCR1 150229Z 12004KT 31/19 A3004 RMK A01 T03060186  RH  049%=      5-min Rain = 0
KCR1 150230Z 13004KT 31/19 A3004 RMK A01 T03060187  RH  049%=      5-min Rain = 0
KCR1 150231Z 13005KT 31/19 A3004 RMK A01 T03050187  RH  049%=      5-min Rain = 0
KCR1 150232Z 13005KT 31/19 A3004 RMK A01 T03050187  RH  049%=      5-min Rain = 0
KCR1 150233Z 13005KT 30/19 A3005 RMK A01 T03040187  RH  050%=      5-min Rain = 0
KCR1 150234Z 13005KT 30/19 A3005 RMK A01 T03040188  RH  050%=      5-min Rain = 0
KCR1 150235Z 13005KT 30/19 A3005 RMK A01 T03040188  RH  050%=      5-min Rain = 0
KCR1 150236Z 13005KT 30/19 A3005 RMK A01 T03040188  RH  050%=      5-min Rain = 0
KCR1 150237Z 13005KT 30/19 A3005 RMK A01 T03030189  RH  050%=      5-min Rain = 0
KCR1 150238Z 13005KT 30/19 A3005 RMK A01 T03020189  RH  051%=      5-min Rain = 0
KCR1 150239Z 13005KT 30/19 A3005 RMK A01 T03020189  RH  051%=      5-min Rain = 0
KCR1 150240Z 13005KT 30/19 A3005 RMK A01 T03020189  RH  051%=      5-min Rain = 0
KCR1 150241Z 13005KT 30/19 A3005 RMK A01 T03020190  RH  051%=      5-min Rain = 0
KCR1 150242Z 13005KT 30/19 A3005 RMK A01 T03010190  RH  051%=      5-min Rain = 0
KCR1 150243Z 13005KT 30/19 A3005 RMK A01 T03000190  RH  052%=      5-min Rain = 0
KCR1 150244Z 13004KT 30/19 A3005 RMK A01 T03000190  RH  052%=      5-min Rain = 0
KCR1 150245Z 13005KT 30/19 A3005 RMK A01 T02990190  RH  052%=      5-min Rain = 0
KCR1 150246Z 13005KT 30/19 A3005 RMK A01 T02990190  RH  052%=      5-min Rain = 0
KCR1 150247Z 13005KT 30/19 A3005 RMK A01 T02990190  RH  052%=      5-min Rain = 0
KCR1 150248Z 13005KT 30/19 A3005 RMK A01 T02980190  RH  052%=      5-min Rain = 0
KCR1 150249Z 13005KT 30/19 A3005 RMK A01 T02980190  RH  052%=      5-min Rain = 0
KCR1 150250Z 13005KT 30/19 A3005 RMK A01 T02970190  RH  053%=      5-min Rain = 0
KCR1 150251Z 13005KT 30/19 A3005 RMK A01 T02970190  RH  053%=      5-min Rain = 0
KCR1 150252Z 13005KT 30/19 A3005 RMK A01 T02970191  RH  053%=      5-min Rain = 0
KCR1 150253Z 13005KT 30/19 A3005 RMK A01 T02970191  RH  053%=      5-min Rain = 0
KCR1 150254Z 13005KT 30/19 A3005 RMK A01 T02970191  RH  053%=      5-min Rain = 0
KCR1 150255Z 13005KT 30/19 A3005 RMK A01 T02960191  RH  053%=      5-min Rain = 0
KCR1 150256Z 13005KT 30/19 A3005 RMK A01 T02960190  RH  053%=      5-min Rain = 0
KCR1 150257Z 13005KT 30/19 A3005 RMK A01 T02960190  RH  053%=      5-min Rain = 0
KCR1 150258Z 13004KT 30/19 A3005 RMK A01 T02950190  RH  053%=      5-min Rain = 0
KCR1 150259Z 13004KT 30/19 A3005 RMK A01 T02950190  RH  053%=      5-min Rain = 0
KCR1 150300Z 13004KT 29/19 A3005 RMK A01 T02940190  RH  053%=      5-min Rain = 0
KCR1 150301Z 13004KT 29/19 A3006 RMK A01 T02940190  RH  054%=      5-min Rain = 0
KCR1 150302Z 13004KT 29/19 A3006 RMK A01 T02930190  RH  054%=      5-min Rain = 0
KCR1 150303Z 14004KT 29/19 A3006 RMK A01 T02940190  RH  054%=      5-min Rain = 0
KCR1 150304Z 13004KT 29/19 A3006 RMK A01 T02930190  RH  054%=      5-min Rain = 0
KCR1 150305Z 13004KT 29/19 A3006 RMK A01 T02930190  RH  054%=      5-min Rain = 0
KCR1 150306Z 13004KT 29/19 A3006 RMK A01 T02920190  RH  054%=      5-min Rain = 0
KCR1 150307Z 13004KT 29/19 A3006 RMK A01 T02920190  RH  054%=      5-min Rain = 0
KCR1 150308Z 13005KT 29/19 A3006 RMK A01 T02920190  RH  054%=      5-min Rain = 0
KCR1 150309Z 13004KT 29/19 A3006 RMK A01 T02920190  RH  054%=      5-min Rain = 0
KCR1 150310Z 13004KT 29/19 A3006 RMK A01 T02910191  RH  055%=      5-min Rain = 0
KCR1 150311Z 13004KT 29/19 A3006 RMK A01 T02910190  RH  055%=      5-min Rain = 0
KCR1 150312Z 13004KT 29/19 A3006 RMK A01 T02910190  RH  055%=      5-min Rain = 0
KCR1 150313Z 13005KT 29/19 A3006 RMK A01 T02910191  RH  055%=      5-min Rain = 0
KCR1 150314Z 13004KT 29/19 A3006 RMK A01 T02910191  RH  055%=      5-min Rain = 0
KCR1 150315Z 13004KT 29/19 A3006 RMK A01 T02910191  RH  055%=      5-min Rain = 0
KCR1 150316Z 13004KT 29/19 A3006 RMK A01 T02910191  RH  055%=      5-min Rain = 0
KCR1 150317Z 13004KT 29/19 A3006 RMK A01 T02910192  RH  055%=      5-min Rain = 0
KCR1 150318Z 13004KT 29/19 A3006 RMK A01 T02910191  RH  055%=      5-min Rain = 0
KCR1 150319Z 13004KT 29/19 A3006 RMK A01 T02900191  RH  055%=      5-min Rain = 0
KCR1 150320Z 13004KT 29/19 A3006 RMK A01 T02900191  RH  055%=      5-min Rain = 0
KCR1 150321Z 13004KT 29/19 A3006 RMK A01 T02890191  RH  055%=      5-min Rain = 0
KCR1 150322Z 13004KT 29/19 A3006 RMK A01 T02890192  RH  056%=      5-min Rain = 0
KCR1 150323Z 13004KT 29/19 A3006 RMK A01 T02890191  RH  056%=      5-min Rain = 0
KCR1 150324Z 13004KT 29/19 A3006 RMK A01 T02890192  RH  056%=      5-min Rain = 0
KCR1 150325Z 13004KT 29/19 A3006 RMK A01 T02880192  RH  056%=      5-min Rain = 0
KCR1 150326Z 12005KT 29/19 A3006 RMK A01 T02880192  RH  056%=      5-min Rain = 0
KCR1 150327Z 12005KT 29/19 A3007 RMK A01 T02880192  RH  056%=      5-min Rain = 0
KCR1 150328Z 12005KT 29/19 A3007 RMK A01 T02880192  RH  056%=      5-min Rain = 0
KCR1 150329Z 12005KT 29/19 A3007 RMK A01 T02880192  RH  056%=      5-min Rain = 0
KCR1 150330Z 12005KT 29/19 A3007 RMK A01 T02880193  RH  056%=      5-min Rain = 0
KCR1 150331Z 12005KT 29/19 A3007 RMK A01 T02880193  RH  056%=      5-min Rain = 0
KCR1 150332Z 12005KT 29/19 A3007 RMK A01 T02880193  RH  056%=      5-min Rain = 0
KCR1 150333Z 12005KT 29/19 A3007 RMK A01 T02880193  RH  056%=      5-min Rain = 0
KCR1 150334Z 13005KT 29/19 A3007 RMK A01 T02880193  RH  056%=      5-min Rain = 0
KCR1 150335Z 13005KT 29/19 A3007 RMK A01 T02880193  RH  057%=      5-min Rain = 0
KCR1 150336Z 13005KT 29/19 A3007 RMK A01 T02880193  RH  057%=      5-min Rain = 0
KCR1 150337Z 12005KT 29/19 A3007 RMK A01 T02870193  RH  057%=      5-min Rain = 0
KCR1 150338Z 12005KT 29/19 A3007 RMK A01 T02880193  RH  057%=      5-min Rain = 0
KCR1 150339Z 12005KT 29/19 A3007 RMK A01 T02880193  RH  057%=      5-min Rain = 0
KCR1 150340Z 12005KT 29/19 A3007 RMK A01 T02880194  RH  057%=      5-min Rain = 0
KCR1 150341Z 12005KT 29/19 A3007 RMK A01 T02870193  RH  057%=      5-min Rain = 0
KCR1 150342Z 12005KT 29/19 A3007 RMK A01 T02870193  RH  057%=      5-min Rain = 0
KCR1 150343Z 12005KT 29/19 A3007 RMK A01 T02870194  RH  057%=      5-min Rain = 0
KCR1 150344Z 13005KT 29/19 A3007 RMK A01 T02860193  RH  057%=      5-min Rain = 0
KCR1 150345Z 12006KT 29/19 A3007 RMK A01 T02860194  RH  057%=      5-min Rain = 0
KCR1 150346Z 12005KT 29/19 A3007 RMK A01 T02860194  RH  057%=      5-min Rain = 0
KCR1 150347Z 12005KT 29/19 A3007 RMK A01 T02860194  RH  057%=      5-min Rain = 0
KCR1 150348Z 12005KT 29/19 A3007 RMK A01 T02860194  RH  058%=      5-min Rain = 0
KCR1 150349Z 12005KT 29/19 A3007 RMK A01 T02860194  RH  058%=      5-min Rain = 0
KCR1 150350Z 12005KT 29/19 A3007 RMK A01 T02860194  RH  058%=      5-min Rain = 0
KCR1 150351Z 12006KT 29/19 A3007 RMK A01 T02870194  RH  057%=      5-min Rain = 0
KCR1 150352Z 12005KT 29/20 A3007 RMK A01 T02870195  RH  057%=      5-min Rain = 0
KCR1 150353Z 12005KT 29/20 A3007 RMK A01 T02870195  RH  057%=      5-min Rain = 0
KCR1 150354Z 12005KT 29/20 A3007 RMK A01 T02870195  RH  057%=      5-min Rain = 0
KCR1 150355Z 13005KT 29/20 A3007 RMK A01 T02870195  RH  058%=      5-min Rain = 0
KCR1 150356Z 13005KT 29/20 A3007 RMK A01 T02870195  RH  058%=      5-min Rain = 0
KCR1 150357Z 13005KT 29/20 A3007 RMK A01 T02870195  RH  058%=      5-min Rain = 0
KCR1 150358Z 13006KT 29/20 A3007 RMK A01 T02870195  RH  058%=      5-min Rain = 0
KCR1 150359Z 12006KT 29/20 A3007 RMK A01 T02870196  RH  058%=      5-min Rain = 0
KCR1 150400Z 12006KT 29/20 A3008 RMK A01 T02860195  RH  058%=      5-min Rain = 0
KCR1 150401Z 13006KT 29/20 A3008 RMK A01 T02870195  RH  058%=      5-min Rain = 0
KCR1 150402Z 13006KT 29/20 A3008 RMK A01 T02860195  RH  058%=      5-min Rain = 0
KCR1 150403Z 12006KT 29/20 A3008 RMK A01 T02870195  RH  058%=      5-min Rain = 0
KCR1 150404Z 12006KT 29/20 A3008 RMK A01 T02870195  RH  058%=      5-min Rain = 0
KCR1 150405Z 12006KT 29/20 A3008 RMK A01 T02870196  RH  058%=      5-min Rain = 0
KCR1 150406Z 12005KT 29/20 A3008 RMK A01 T02870196  RH  058%=      5-min Rain = 0
KCR1 150407Z 12006KT 29/20 A3008 RMK A01 T02860196  RH  058%=      5-min Rain = 0
KCR1 150408Z 12006KT 29/20 A3008 RMK A01 T02870196  RH  058%=      5-min Rain = 0
KCR1 150409Z 12005KT 29/20 A3008 RMK A01 T02870196  RH  058%=      5-min Rain = 0
KCR1 150410Z 12006KT 29/20 A3008 RMK A01 T02870196  RH  058%=      5-min Rain = 0
KCR1 150411Z 12006KT 29/20 A3008 RMK A01 T02860196  RH  058%=      5-min Rain = 0
KCR1 150412Z 12006KT 29/20 A3008 RMK A01 T02860197  RH  059%=      5-min Rain = 0
KCR1 150413Z 12006KT 29/20 A3008 RMK A01 T02860197  RH  059%=      5-min Rain = 0
KCR1 150414Z 12006KT 29/20 A3008 RMK A01 T02860197  RH  059%=      5-min Rain = 0
KCR1 150415Z 12006KT 29/20 A3008 RMK A01 T02860197  RH  059%=      5-min Rain = 0
KCR1 150416Z 12006KT 29/20 A3008 RMK A01 T02860198  RH  059%=      5-min Rain = 0
KCR1 150417Z 12006KT 29/20 A3008 RMK A01 T02850198  RH  059%=      5-min Rain = 0
KCR1 150418Z 13006KT 29/20 A3008 RMK A01 T02850198  RH  059%=      5-min Rain = 0
KCR1 150419Z 13006KT 28/20 A3008 RMK A01 T02840198  RH  059%=      5-min Rain = 0
KCR1 150420Z 13006KT 28/20 A3008 RMK A01 T02840198  RH  060%=      5-min Rain = 0
KCR1 150421Z 12006KT 29/20 A3008 RMK A01 T02850198  RH  059%=      5-min Rain = 0
KCR1 150422Z 12006KT 29/20 A3008 RMK A01 T02850199  RH  060%=      5-min Rain = 0
KCR1 150423Z 13006KT 28/20 A3008 RMK A01 T02840198  RH  060%=      5-min Rain = 0
KCR1 150424Z 12006KT 28/20 A3008 RMK A01 T02840199  RH  060%=      5-min Rain = 0
KCR1 150425Z 13006KT 28/20 A3008 RMK A01 T02840199  RH  060%=      5-min Rain = 0
KCR1 150426Z 13006KT 28/20 A3008 RMK A01 T02830199  RH  060%=      5-min Rain = 0
KCR1 150427Z 12006KT 28/20 A3008 RMK A01 T02830199  RH  060%=      5-min Rain = 0
KCR1 150428Z 13006KT 28/20 A3008 RMK A01 T02830200  RH  060%=      5-min Rain = 0
KCR1 150429Z 13006KT 28/20 A3008 RMK A01 T02830199  RH  061%=      5-min Rain = 0
KCR1 150430Z 12006KT 28/20 A3008 RMK A01 T02830200  RH  061%=      5-min Rain = 0
KCR1 150431Z 12006KT 28/20 A3008 RMK A01 T02830199  RH  061%=      5-min Rain = 0
KCR1 150432Z 12006KT 28/20 A3008 RMK A01 T02820200  RH  061%=      5-min Rain = 0
KCR1 150433Z 13006KT 28/20 A3008 RMK A01 T02820199  RH  061%=      5-min Rain = 0
KCR1 150434Z 12006KT 28/20 A3008 RMK A01 T02820200  RH  061%=      5-min Rain = 0
KCR1 150435Z 12006KT 28/20 A3008 RMK A01 T02820200  RH  061%=      5-min Rain = 0
KCR1 150436Z 12005KT 28/20 A3008 RMK A01 T02810200  RH  061%=      5-min Rain = 0
KCR1 150437Z 12006KT 28/20 A3008 RMK A01 T02810200  RH  061%=      5-min Rain = 0
KCR1 150438Z 12006KT 28/20 A3008 RMK A01 T02810200  RH  062%=      5-min Rain = 0
KCR1 150439Z 13006KT 28/20 A3008 RMK A01 T02800200  RH  062%=      5-min Rain = 0
KCR1 150440Z 12006KT 28/20 A3008 RMK A01 T02810201  RH  062%=      5-min Rain = 0
KCR1 150441Z 13006KT 28/20 A3008 RMK A01 T02810201  RH  062%=      5-min Rain = 0
KCR1 150442Z 13006KT 28/20 A3008 RMK A01 T02800200  RH  062%=      5-min Rain = 0
KCR1 150443Z 12006KT 28/20 A3008 RMK A01 T02800201  RH  062%=      5-min Rain = 0
KCR1 150444Z 13006KT 28/20 A3008 RMK A01 T02800201  RH  062%=      5-min Rain = 0
KCR1 150445Z 13006KT 28/20 A3008 RMK A01 T02800201  RH  062%=      5-min Rain = 0
KCR1 150446Z 13005KT 28/20 A3008 RMK A01 T02800201  RH  062%=      5-min Rain = 0
KCR1 150447Z 13005KT 28/20 A3008 RMK A01 T02800202  RH  062%=      5-min Rain = 0
KCR1 150448Z 13005KT 28/20 A3008 RMK A01 T02790201  RH  062%=      5-min Rain = 0
KCR1 150449Z 13005KT 28/20 A3008 RMK A01 T02790201  RH  063%=      5-min Rain = 0
KCR1 150450Z 13005KT 28/20 A3008 RMK A01 T02790201  RH  063%=      5-min Rain = 0
KCR1 150451Z 13005KT 28/20 A3008 RMK A01 T02780202  RH  063%=      5-min Rain = 0
KCR1 150452Z 13006KT 28/20 A3008 RMK A01 T02780202  RH  063%=      5-min Rain = 0
KCR1 150453Z 13005KT 28/20 A3008 RMK A01 T02780202  RH  063%=      5-min Rain = 0
KCR1 150454Z 13005KT 28/20 A3008 RMK A01 T02780202  RH  063%=      5-min Rain = 0
KCR1 150455Z 13004KT 28/20 A3008 RMK A01 T02770202  RH  063%=      5-min Rain = 0
KCR1 150456Z 13005KT 28/20 A3008 RMK A01 T02770202  RH  064%=      5-min Rain = 0
KCR1 150457Z 13005KT 28/20 A3008 RMK A01 T02760202  RH  064%=      5-min Rain = 0
KCR1 150458Z 13005KT 28/20 A3008 RMK A01 T02760202  RH  064%=      5-min Rain = 0
KCR1 150459Z 13005KT 28/20 A3008 RMK A01 T02760202  RH  064%=      5-min Rain = 0

Page generated in 0.1212 seconds.